SWR188 LSZH-ZSPD
Flight info
| Callsign | SWR188 |
|---|---|
| Flight time | 11h 31m |
| Altitude | 33000 |
| Route | DEGES Z2 TUNUM Z204 GEDSO DCT REKTI DCT MAGAM DCT DIMSI DCT NISVA DCT BGS/N0460F350 DCT UDROS UM859 KARDE UL851 TBN UM11 REBLO M11 MATAL T916 LEYLA N161 GASBI/K0845F350 N161 ABDUN/K0850F370 N161 SARIN/K0832S1130 A368 FKG W188 LIKMI W270 BUVEM/K0830S1190 W270 DKO W64 NUTLO B208 CGO W129 KAMDA W128 FYG B208 HFE R343 SASAN SAS93A |
| Aircraft | A343/H-SDE2E3FGHIJ4J5M1RWXY/LB1D1 |
Departure
| Time | 2026-05-07 19:25 |
|---|---|
| Airport | Zürich Airport (LSZH) |
Arrival
| Time | 2026-05-08 06:56 |
|---|---|
| Airport | Shanghai Pudong International Airport (ZSPD) |
| Time | Latitude | Longitude | Altitude | Speed | Heading |
|---|---|---|---|---|---|
| 2026-05-07 19:01 | 47.46178 | 8.55492 | 1376 ft | 0 kts | 186° |
| 2026-05-07 19:14 | 47.46196 | 8.55495 | 1402 ft | 4 kts | 186° |
| 2026-05-07 19:15 | 47.46223 | 8.55499 | 1411 ft | 4 kts | 186° |
| 2026-05-07 19:15 | 47.46244 | 8.55500 | 1411 ft | 4 kts | 147° |
| 2026-05-07 19:15 | 47.46257 | 8.55472 | 1409 ft | 4 kts | 102° |
| 2026-05-07 19:15 | 47.46260 | 8.55435 | 1404 ft | 4 kts | 96° |
| 2026-05-07 19:16 | 47.46263 | 8.55396 | 1407 ft | 3 kts | 96° |
| 2026-05-07 19:16 | 47.46263 | 8.55392 | 1403 ft | 1 kts | 96° |
| 2026-05-07 19:18 | 47.46263 | 8.55398 | 1406 ft | 3 kts | 96° |
| 2026-05-07 19:19 | 47.46258 | 8.55459 | 1407 ft | 9 kts | 96° |
| 2026-05-07 19:19 | 47.46252 | 8.55545 | 1406 ft | 6 kts | 96° |
| 2026-05-07 19:19 | 47.46247 | 8.55615 | 1409 ft | 7 kts | 96° |
| 2026-05-07 19:19 | 47.46243 | 8.55680 | 1404 ft | 5 kts | 96° |
| 2026-05-07 19:20 | 47.46239 | 8.55729 | 1405 ft | 6 kts | 96° |
| 2026-05-07 19:20 | 47.46233 | 8.55815 | 1406 ft | 9 kts | 95° |
| 2026-05-07 19:20 | 47.46228 | 8.55900 | 1412 ft | 9 kts | 95° |
| 2026-05-07 19:20 | 47.46212 | 8.55987 | 1414 ft | 9 kts | 124° |
| 2026-05-07 19:21 | 47.46163 | 8.56058 | 1419 ft | 11 kts | 136° |
| 2026-05-07 19:21 | 47.46097 | 8.56148 | 1416 ft | 13 kts | 137° |
| 2026-05-07 19:21 | 47.46059 | 8.56199 | 1419 ft | 1 kts | 137° |
| 2026-05-07 19:21 | 47.46055 | 8.56205 | 1419 ft | 2 kts | 137° |
| 2026-05-07 19:22 | 47.46037 | 8.56237 | 1420 ft | 3 kts | 116° |
| 2026-05-07 19:22 | 47.46038 | 8.56254 | 1421 ft | 2 kts | 89° |
| 2026-05-07 19:22 | 47.46047 | 8.56282 | 1420 ft | 5 kts | 63° |
| 2026-05-07 19:22 | 47.46088 | 8.56357 | 1417 ft | 12 kts | 46° |
| 2026-05-07 19:23 | 47.46149 | 8.56409 | 1420 ft | 9 kts | 353° |
| 2026-05-07 19:23 | 47.46183 | 8.56373 | 1421 ft | 0 kts | 316° |
| 2026-05-07 19:24 | 47.46194 | 8.56357 | 1421 ft | 10 kts | 316° |
| 2026-05-07 19:24 | 47.46382 | 8.56101 | 1414 ft | 67 kts | 317° |
| 2026-05-07 19:25 | 47.46866 | 8.55440 | 1406 ft | 121 kts | 317° |
| 2026-05-07 19:25 | 47.47600 | 8.54445 | 1409 ft | 164 kts | 318° |
| 2026-05-07 19:25 | 47.48460 | 8.53298 | 1866 ft | 166 kts | 318° |
| 2026-05-07 19:25 | 47.49411 | 8.52247 | 2297 ft | 177 kts | 332° |
| 2026-05-07 19:26 | 47.50561 | 8.51558 | 2812 ft | 180 kts | 353° |
| 2026-05-07 19:26 | 47.51776 | 8.51852 | 3326 ft | 179 kts | 31° |
| 2026-05-07 19:26 | 47.52585 | 8.53186 | 3780 ft | 176 kts | 63° |
| 2026-05-07 19:26 | 47.53075 | 8.54839 | 4141 ft | 180 kts | 68° |
| 2026-05-07 19:27 | 47.53534 | 8.56568 | 4523 ft | 184 kts | 68° |
| 2026-05-07 19:27 | 47.54025 | 8.58394 | 4746 ft | 198 kts | 68° |
| 2026-05-07 19:27 | 47.54561 | 8.60349 | 4965 ft | 211 kts | 68° |
| 2026-05-07 19:27 | 47.55133 | 8.62412 | 5282 ft | 222 kts | 68° |
| 2026-05-07 19:28 | 47.55732 | 8.64563 | 5709 ft | 229 kts | 67° |
| 2026-05-07 19:28 | 47.56353 | 8.66789 | 6080 ft | 241 kts | 68° |
| 2026-05-07 19:28 | 47.56818 | 8.69254 | 6290 ft | 259 kts | 88° |
| 2026-05-07 19:28 | 47.56399 | 8.71885 | 6513 ft | 272 kts | 123° |
| 2026-05-07 19:29 | 47.55061 | 8.73874 | 6955 ft | 277 kts | 146° |
| 2026-05-07 19:29 | 47.53469 | 8.75471 | 7486 ft | 282 kts | 148° |
| 2026-05-07 19:29 | 47.51828 | 8.77091 | 8076 ft | 286 kts | 147° |
| 2026-05-07 19:29 | 47.50173 | 8.78763 | 8627 ft | 290 kts | 147° |
| 2026-05-07 19:30 | 47.48516 | 8.80477 | 9185 ft | 294 kts | 146° |
| 2026-05-07 19:30 | 47.47041 | 8.82606 | 9709 ft | 302 kts | 125° |
| 2026-05-07 19:30 | 47.46222 | 8.85489 | 10227 ft | 310 kts | 106° |
| 2026-05-07 19:30 | 47.45737 | 8.88661 | 10465 ft | 323 kts | 103° |
| 2026-05-07 19:31 | 47.45281 | 8.91975 | 10700 ft | 335 kts | 103° |
| 2026-05-07 19:31 | 47.44817 | 8.95361 | 10936 ft | 347 kts | 103° |
| 2026-05-07 19:31 | 47.44324 | 8.98913 | 11150 ft | 359 kts | 103° |
| 2026-05-07 19:31 | 47.43807 | 9.02588 | 11381 ft | 371 kts | 103° |
| 2026-05-07 19:32 | 47.43274 | 9.06348 | 11767 ft | 377 kts | 103° |
| 2026-05-07 19:32 | 47.42725 | 9.10156 | 12215 ft | 381 kts | 103° |
| 2026-05-07 19:32 | 47.42167 | 9.14011 | 12461 ft | 386 kts | 103° |
| 2026-05-07 19:32 | 47.41631 | 9.17910 | 13141 ft | 390 kts | 100° |
| 2026-05-07 19:33 | 47.41557 | 9.21940 | 13627 ft | 395 kts | 85° |
| 2026-05-07 19:33 | 47.41947 | 9.25971 | 14114 ft | 399 kts | 79° |
| 2026-05-07 19:33 | 47.42533 | 9.29988 | 14590 ft | 401 kts | 77° |
| 2026-05-07 19:33 | 47.43202 | 9.33999 | 15033 ft | 404 kts | 76° |
| 2026-05-07 19:34 | 47.43891 | 9.38044 | 15528 ft | 407 kts | 76° |
| 2026-05-07 19:34 | 47.44558 | 9.42058 | 15992 ft | 409 kts | 76° |
| 2026-05-07 19:34 | 47.45214 | 9.46156 | 16488 ft | 411 kts | 77° |
| 2026-05-07 19:34 | 47.45853 | 9.50281 | 16972 ft | 413 kts | 77° |
| 2026-05-07 19:35 | 47.46480 | 9.54428 | 17448 ft | 415 kts | 77° |
| 2026-05-07 19:35 | 47.46999 | 9.58631 | 17908 ft | 417 kts | 84° |
| 2026-05-07 19:35 | 47.47084 | 9.62921 | 18379 ft | 418 kts | 91° |
| 2026-05-07 19:35 | 47.46979 | 9.67224 | 18770 ft | 421 kts | 94° |
| 2026-05-07 19:36 | 47.46779 | 9.71558 | 19134 ft | 424 kts | 95° |
| 2026-05-07 19:36 | 47.46529 | 9.75916 | 19520 ft | 426 kts | 95° |
| 2026-05-07 19:36 | 47.46263 | 9.80288 | 19914 ft | 429 kts | 95° |
| 2026-05-07 19:36 | 47.45996 | 9.84636 | 20303 ft | 431 kts | 95° |
| 2026-05-07 19:37 | 47.45729 | 9.89109 | 20678 ft | 433 kts | 95° |
| 2026-05-07 19:37 | 47.45472 | 9.93503 | 21053 ft | 436 kts | 95° |
| 2026-05-07 19:37 | 47.45214 | 9.97972 | 21417 ft | 438 kts | 95° |
| 2026-05-07 19:37 | 47.44957 | 10.02470 | 21810 ft | 440 kts | 95° |
| 2026-05-07 19:38 | 47.44697 | 10.06987 | 22163 ft | 443 kts | 95° |
| 2026-05-07 19:38 | 47.44436 | 10.11529 | 22528 ft | 445 kts | 95° |
| 2026-05-07 19:38 | 47.44163 | 10.16095 | 22870 ft | 447 kts | 96° |
| 2026-05-07 19:38 | 47.43693 | 10.20645 | 23217 ft | 449 kts | 100° |
| 2026-05-07 19:39 | 47.43139 | 10.25195 | 23537 ft | 451 kts | 101° |
| 2026-05-07 19:39 | 47.42550 | 10.29693 | 23818 ft | 454 kts | 101° |
| 2026-05-07 19:39 | 47.41930 | 10.34276 | 24087 ft | 456 kts | 102° |
| 2026-05-07 19:39 | 47.41299 | 10.38869 | 24328 ft | 459 kts | 102° |
| 2026-05-07 19:40 | 47.40663 | 10.43494 | 24589 ft | 460 kts | 102° |
| 2026-05-07 19:40 | 47.40024 | 10.48140 | 24803 ft | 464 kts | 102° |
| 2026-05-07 19:40 | 47.39382 | 10.52815 | 25031 ft | 466 kts | 102° |
| 2026-05-07 19:40 | 47.38733 | 10.57515 | 25252 ft | 468 kts | 102° |
| 2026-05-07 19:41 | 47.38081 | 10.62225 | 25511 ft | 470 kts | 102° |
| 2026-05-07 19:41 | 47.37431 | 10.66903 | 25756 ft | 473 kts | 102° |
| 2026-05-07 19:41 | 47.36769 | 10.71656 | 26006 ft | 474 kts | 102° |
| 2026-05-07 19:41 | 47.36102 | 10.76432 | 26213 ft | 477 kts | 102° |
| 2026-05-07 19:42 | 47.35430 | 10.81234 | 26438 ft | 479 kts | 102° |
| 2026-05-07 19:42 | 47.34753 | 10.86054 | 26651 ft | 481 kts | 102° |
| 2026-05-07 19:42 | 47.34073 | 10.90882 | 26882 ft | 482 kts | 102° |
| 2026-05-07 19:42 | 47.33389 | 10.95725 | 27083 ft | 484 kts | 102° |
| 2026-05-07 19:43 | 47.32698 | 11.00596 | 27314 ft | 486 kts | 102° |
| 2026-05-07 19:43 | 47.32003 | 11.05485 | 27544 ft | 488 kts | 102° |
| 2026-05-07 19:43 | 47.31311 | 11.10328 | 27742 ft | 490 kts | 102° |
| 2026-05-07 19:43 | 47.30607 | 11.15243 | 27955 ft | 492 kts | 102° |
| 2026-05-07 19:44 | 47.29898 | 11.20181 | 28163 ft | 494 kts | 102° |
| 2026-05-07 19:44 | 47.29185 | 11.25129 | 28382 ft | 495 kts | 102° |
| 2026-05-07 19:44 | 47.28465 | 11.30108 | 28579 ft | 497 kts | 102° |
| 2026-05-07 19:44 | 47.27741 | 11.35098 | 28753 ft | 499 kts | 102° |
| 2026-05-07 19:45 | 47.27011 | 11.40105 | 28946 ft | 501 kts | 102° |
| 2026-05-07 19:45 | 47.26256 | 11.45115 | 29117 ft | 503 kts | 105° |
| 2026-05-07 19:45 | 47.25153 | 11.49995 | 29308 ft | 503 kts | 114° |
| 2026-05-07 19:45 | 47.23546 | 11.54554 | 29556 ft | 501 kts | 123° |
| 2026-05-07 19:46 | 47.21659 | 11.58862 | 29800 ft | 501 kts | 126° |
| 2026-05-07 19:46 | 47.19716 | 11.63035 | 29888 ft | 503 kts | 127° |
| 2026-05-07 19:46 | 47.17690 | 11.67248 | 30000 ft | 506 kts | 128° |
| 2026-05-07 19:46 | 47.15645 | 11.71455 | 30237 ft | 504 kts | 128° |
| 2026-05-07 19:47 | 47.13609 | 11.75641 | 30465 ft | 504 kts | 128° |
| 2026-05-07 19:47 | 47.11574 | 11.79835 | 30610 ft | 505 kts | 128° |
| 2026-05-07 19:47 | 47.09570 | 11.84080 | 30738 ft | 507 kts | 124° |
| 2026-05-07 19:47 | 47.07893 | 11.88630 | 30985 ft | 509 kts | 115° |
| 2026-05-07 19:48 | 47.06581 | 11.93446 | 31160 ft | 509 kts | 112° |
| 2026-05-07 19:48 | 47.05374 | 11.98327 | 31351 ft | 510 kts | 110° |
| 2026-05-07 19:48 | 47.04233 | 12.03173 | 31513 ft | 510 kts | 110° |
| 2026-05-07 19:48 | 47.03094 | 12.08094 | 31689 ft | 510 kts | 110° |
| 2026-05-07 19:49 | 47.01956 | 12.13016 | 31900 ft | 510 kts | 110° |
| 2026-05-07 19:49 | 47.00812 | 12.17930 | 32110 ft | 509 kts | 110° |
| 2026-05-07 19:49 | 46.99661 | 12.22833 | 32312 ft | 509 kts | 110° |
| 2026-05-07 19:49 | 46.98501 | 12.27738 | 32460 ft | 510 kts | 110° |
| 2026-05-07 19:50 | 46.97334 | 12.32641 | 32611 ft | 510 kts | 111° |
| 2026-05-07 19:50 | 46.96164 | 12.37541 | 32779 ft | 509 kts | 111° |
| 2026-05-07 19:50 | 46.93828 | 12.47279 | 32988 ft | 511 kts | 111° |
| 2026-05-07 19:51 | 46.91477 | 12.57045 | 33051 ft | 503 kts | 111° |
| 2026-05-07 19:51 | 46.89161 | 12.66626 | 33072 ft | 500 kts | 111° |
| 2026-05-07 19:52 | 46.86827 | 12.76229 | 33043 ft | 502 kts | 111° |
| 2026-05-07 19:52 | 46.84492 | 12.85802 | 33047 ft | 505 kts | 112° |
| 2026-05-07 19:53 | 46.82128 | 12.95457 | 33047 ft | 505 kts | 112° |
| 2026-05-07 19:53 | 46.79755 | 13.05107 | 33043 ft | 505 kts | 112° |
| 2026-05-07 19:54 | 46.77388 | 13.14693 | 33035 ft | 505 kts | 112° |
| 2026-05-07 19:54 | 46.74995 | 13.24338 | 33044 ft | 506 kts | 112° |
| 2026-05-07 19:55 | 46.72597 | 13.33962 | 33046 ft | 505 kts | 112° |
| 2026-05-07 19:55 | 46.70190 | 13.43588 | 33048 ft | 505 kts | 112° |
| 2026-05-07 19:56 | 46.67791 | 13.53135 | 33044 ft | 506 kts | 112° |
| 2026-05-07 19:56 | 46.65366 | 13.62747 | 33050 ft | 506 kts | 112° |
| 2026-05-07 19:57 | 46.62936 | 13.72335 | 33048 ft | 506 kts | 112° |
| 2026-05-07 19:57 | 46.60493 | 13.81937 | 33047 ft | 506 kts | 112° |
| 2026-05-07 19:58 | 46.57921 | 13.91384 | 33051 ft | 504 kts | 117° |
| 2026-05-07 19:58 | 46.54967 | 14.00589 | 33047 ft | 502 kts | 118° |
| 2026-05-07 19:59 | 46.51949 | 14.09731 | 33047 ft | 502 kts | 118° |
| 2026-05-07 19:59 | 46.48917 | 14.18868 | 33047 ft | 503 kts | 119° |
| 2026-05-07 20:00 | 46.45875 | 14.28025 | 33046 ft | 504 kts | 119° |
| 2026-05-07 20:00 | 46.42859 | 14.37099 | 33038 ft | 502 kts | 119° |
| 2026-05-07 20:01 | 46.39816 | 14.46217 | 33018 ft | 502 kts | 119° |
| 2026-05-07 20:01 | 46.36766 | 14.55312 | 33019 ft | 502 kts | 120° |
| 2026-05-07 20:02 | 46.33708 | 14.64403 | 33014 ft | 502 kts | 120° |
| 2026-05-07 20:02 | 46.30673 | 14.73400 | 33013 ft | 501 kts | 120° |
| 2026-05-07 20:03 | 46.27610 | 14.82445 | 33034 ft | 501 kts | 120° |
| 2026-05-07 20:03 | 46.24540 | 14.91478 | 33011 ft | 501 kts | 120° |
| 2026-05-07 20:04 | 46.21467 | 15.00492 | 33013 ft | 500 kts | 120° |
| 2026-05-07 20:04 | 46.18420 | 15.09404 | 33014 ft | 499 kts | 120° |
| 2026-05-07 20:05 | 46.15335 | 15.18389 | 33007 ft | 499 kts | 120° |
| 2026-05-07 20:05 | 46.12248 | 15.27354 | 33015 ft | 499 kts | 120° |
| 2026-05-07 20:06 | 46.09163 | 15.36285 | 33016 ft | 497 kts | 121° |
| 2026-05-07 20:06 | 46.06096 | 15.45130 | 33037 ft | 496 kts | 121° |
| 2026-05-07 20:07 | 46.03003 | 15.54019 | 33042 ft | 497 kts | 121° |
| 2026-05-07 20:07 | 45.99901 | 15.62903 | 33043 ft | 497 kts | 121° |
| 2026-05-07 20:08 | 45.96815 | 15.71713 | 33039 ft | 496 kts | 121° |
| 2026-05-07 20:08 | 45.93568 | 15.80443 | 33033 ft | 495 kts | 123° |
| 2026-05-07 20:09 | 45.90221 | 15.89090 | 33026 ft | 495 kts | 123° |
| 2026-05-07 20:10 | 45.85231 | 16.02052 | 33019 ft | 494 kts | 123° |
| 2026-05-07 20:10 | 45.81955 | 16.10603 | 33016 ft | 492 kts | 123° |
| 2026-05-07 20:11 | 45.78650 | 16.19204 | 33021 ft | 493 kts | 123° |
| 2026-05-07 20:11 | 45.75332 | 16.27811 | 33017 ft | 493 kts | 123° |
| 2026-05-07 20:12 | 45.72015 | 16.36390 | 33013 ft | 492 kts | 123° |
| 2026-05-07 20:12 | 45.68717 | 16.44891 | 33009 ft | 491 kts | 123° |
| 2026-05-07 20:13 | 45.65395 | 16.53426 | 33014 ft | 491 kts | 123° |
| 2026-05-07 20:13 | 45.62065 | 16.61953 | 33012 ft | 491 kts | 123° |
| 2026-05-07 20:14 | 45.58732 | 16.70466 | 33023 ft | 490 kts | 124° |
| 2026-05-07 20:14 | 45.55424 | 16.78889 | 33006 ft | 489 kts | 124° |
| 2026-05-07 20:15 | 45.52089 | 16.87351 | 33006 ft | 489 kts | 124° |
| 2026-05-07 20:15 | 45.48749 | 16.95804 | 33000 ft | 489 kts | 124° |
| 2026-05-07 20:16 | 45.45401 | 17.04249 | 33018 ft | 489 kts | 124° |
| 2026-05-07 20:16 | 45.42052 | 17.12672 | 33022 ft | 489 kts | 124° |
| 2026-05-07 20:17 | 45.38718 | 17.21031 | 33024 ft | 489 kts | 124° |
| 2026-05-07 20:17 | 45.35356 | 17.29435 | 33003 ft | 489 kts | 124° |
| 2026-05-07 20:18 | 45.31992 | 17.37819 | 33024 ft | 488 kts | 124° |
| 2026-05-07 20:18 | 45.28622 | 17.46193 | 33027 ft | 488 kts | 124° |
| 2026-05-07 20:19 | 45.25270 | 17.54497 | 33029 ft | 488 kts | 124° |
| 2026-05-07 20:19 | 45.21892 | 17.62839 | 33020 ft | 488 kts | 124° |
| 2026-05-07 20:20 | 45.18513 | 17.71162 | 33029 ft | 486 kts | 124° |
| 2026-05-07 20:20 | 45.15134 | 17.79458 | 33030 ft | 487 kts | 124° |
| 2026-05-07 20:21 | 45.11733 | 17.87782 | 33022 ft | 488 kts | 124° |
| 2026-05-07 20:21 | 45.08351 | 17.96037 | 33030 ft | 488 kts | 124° |
| 2026-05-07 20:22 | 45.04948 | 18.04321 | 33029 ft | 486 kts | 124° |
| 2026-05-07 20:22 | 45.01542 | 18.12587 | 33029 ft | 486 kts | 124° |
| 2026-05-07 20:23 | 44.98130 | 18.20840 | 33030 ft | 486 kts | 124° |
| 2026-05-07 20:23 | 44.94715 | 18.29076 | 33027 ft | 486 kts | 124° |
| 2026-05-07 20:24 | 44.91318 | 18.37249 | 33026 ft | 486 kts | 124° |
| 2026-05-07 20:24 | 44.87889 | 18.45472 | 33029 ft | 486 kts | 124° |
| 2026-05-07 20:25 | 44.84458 | 18.53678 | 33029 ft | 486 kts | 124° |
| 2026-05-07 20:25 | 44.81014 | 18.61888 | 33029 ft | 487 kts | 124° |
| 2026-05-07 20:26 | 44.77589 | 18.70029 | 33042 ft | 487 kts | 124° |
| 2026-05-07 20:26 | 44.74135 | 18.78219 | 33034 ft | 487 kts | 124° |
| 2026-05-07 20:27 | 44.70671 | 18.86407 | 33033 ft | 487 kts | 125° |
| 2026-05-07 20:27 | 44.67205 | 18.94575 | 33034 ft | 487 kts | 125° |
| 2026-05-07 20:28 | 44.63753 | 19.02690 | 33033 ft | 487 kts | 125° |
| 2026-05-07 20:28 | 44.60276 | 19.10838 | 33033 ft | 487 kts | 125° |
| 2026-05-07 20:29 | 44.56792 | 19.18980 | 33023 ft | 487 kts | 125° |
| 2026-05-07 20:29 | 44.53361 | 19.27163 | 33035 ft | 487 kts | 124° |
| 2026-05-07 20:30 | 44.49987 | 19.35323 | 33030 ft | 487 kts | 124° |
| 2026-05-07 20:30 | 44.46570 | 19.43537 | 33041 ft | 489 kts | 124° |
| 2026-05-07 20:31 | 44.43130 | 19.51753 | 33042 ft | 489 kts | 124° |
| 2026-05-07 20:31 | 44.39685 | 19.59950 | 33044 ft | 489 kts | 124° |
| 2026-05-07 20:32 | 44.36235 | 19.68133 | 33049 ft | 489 kts | 124° |
| 2026-05-07 20:32 | 44.32799 | 19.76259 | 33048 ft | 489 kts | 124° |
| 2026-05-07 20:33 | 44.29343 | 19.84412 | 33046 ft | 487 kts | 124° |
| 2026-05-07 20:33 | 44.25891 | 19.92532 | 33044 ft | 486 kts | 124° |
| 2026-05-07 20:34 | 44.22436 | 20.00634 | 33048 ft | 486 kts | 124° |
| 2026-05-07 20:34 | 44.18973 | 20.08731 | 33050 ft | 486 kts | 124° |
| 2026-05-07 20:35 | 44.15533 | 20.16754 | 33032 ft | 485 kts | 124° |
| 2026-05-07 20:35 | 44.12057 | 20.24832 | 33053 ft | 488 kts | 124° |
| 2026-05-07 20:36 | 44.08560 | 20.32942 | 33043 ft | 489 kts | 124° |
| 2026-05-07 20:36 | 44.05058 | 20.41041 | 33058 ft | 489 kts | 124° |
| 2026-05-07 20:37 | 44.01580 | 20.49065 | 33063 ft | 487 kts | 124° |
| 2026-05-07 20:37 | 43.98082 | 20.57111 | 33068 ft | 486 kts | 124° |
| 2026-05-07 20:38 | 43.94579 | 20.65139 | 33049 ft | 487 kts | 124° |
| 2026-05-07 20:38 | 43.91066 | 20.73171 | 33046 ft | 486 kts | 124° |
| 2026-05-07 20:39 | 43.87580 | 20.81125 | 33048 ft | 486 kts | 124° |
| 2026-05-07 20:39 | 43.84063 | 20.89125 | 33049 ft | 486 kts | 124° |
| 2026-05-07 20:40 | 43.80539 | 20.97115 | 33046 ft | 486 kts | 124° |
| 2026-05-07 20:40 | 43.76991 | 21.05136 | 33050 ft | 489 kts | 124° |
| 2026-05-07 20:41 | 43.73460 | 21.13103 | 33050 ft | 489 kts | 124° |
| 2026-05-07 20:41 | 43.69902 | 21.21107 | 33051 ft | 489 kts | 124° |
| 2026-05-07 20:42 | 43.66335 | 21.29108 | 33046 ft | 489 kts | 124° |
| 2026-05-07 20:42 | 43.62778 | 21.37068 | 33051 ft | 486 kts | 124° |
| 2026-05-07 20:43 | 43.59825 | 21.43657 | 33054 ft | 485 kts | 124° |
| 2026-05-07 20:43 | 43.55694 | 21.52848 | 33058 ft | 485 kts | 124° |
| 2026-05-07 20:44 | 43.52130 | 21.60754 | 33063 ft | 486 kts | 124° |
| 2026-05-07 20:44 | 43.49164 | 21.67320 | 33067 ft | 486 kts | 124° |
| 2026-05-07 20:45 | 43.44984 | 21.76544 | 33071 ft | 487 kts | 124° |
| 2026-05-07 20:45 | 43.41991 | 21.83131 | 33081 ft | 490 kts | 124° |
| 2026-05-07 20:46 | 43.37784 | 21.92369 | 33077 ft | 490 kts | 124° |
| 2026-05-07 20:46 | 43.34158 | 22.00309 | 33077 ft | 490 kts | 124° |
| 2026-05-07 20:47 | 43.31143 | 22.06892 | 33076 ft | 490 kts | 124° |
| 2026-05-07 20:47 | 43.26918 | 22.16094 | 33069 ft | 490 kts | 124° |
| 2026-05-07 20:48 | 43.23275 | 22.24006 | 33073 ft | 490 kts | 125° |
| 2026-05-07 20:48 | 43.20244 | 22.30570 | 33100 ft | 491 kts | 125° |
| 2026-05-07 20:49 | 43.16588 | 22.38468 | 33093 ft | 490 kts | 125° |
| 2026-05-07 20:49 | 43.12933 | 22.46345 | 33109 ft | 490 kts | 124° |
| 2026-05-07 20:50 | 43.09261 | 22.54235 | 33106 ft | 493 kts | 125° |
| 2026-05-07 20:50 | 43.05587 | 22.62110 | 33112 ft | 495 kts | 125° |
| 2026-05-07 20:51 | 43.01876 | 22.70044 | 33107 ft | 495 kts | 124° |
| 2026-05-07 20:51 | 42.98437 | 22.78187 | 33112 ft | 497 kts | 113° |
| 2026-05-07 20:51 | 42.97372 | 22.82668 | 33114 ft | 497 kts | 102° |
| 2026-05-07 20:52 | 42.96835 | 22.87320 | 33115 ft | 497 kts | 96° |
| 2026-05-07 20:52 | 42.96181 | 22.96739 | 33108 ft | 499 kts | 94° |
| 2026-05-07 20:53 | 42.95657 | 23.06116 | 33110 ft | 498 kts | 94° |
| 2026-05-07 20:53 | 42.95103 | 23.15515 | 33107 ft | 495 kts | 94° |
| 2026-05-07 20:54 | 42.94515 | 23.24880 | 33103 ft | 495 kts | 94° |
| 2026-05-07 20:54 | 42.93908 | 23.34236 | 33103 ft | 495 kts | 94° |
| 2026-05-07 20:55 | 42.93299 | 23.43504 | 33094 ft | 491 kts | 94° |
| 2026-05-07 20:55 | 42.92684 | 23.52761 | 33098 ft | 489 kts | 94° |
| 2026-05-07 20:56 | 42.92064 | 23.61998 | 33093 ft | 489 kts | 94° |
| 2026-05-07 20:56 | 42.91436 | 23.71251 | 33099 ft | 489 kts | 94° |
| 2026-05-07 20:57 | 42.90800 | 23.80489 | 33096 ft | 489 kts | 95° |
| 2026-05-07 20:57 | 42.90161 | 23.89668 | 33088 ft | 489 kts | 95° |
| 2026-05-07 20:58 | 42.89511 | 23.98906 | 33089 ft | 489 kts | 95° |
| 2026-05-07 20:58 | 42.88852 | 24.08147 | 33088 ft | 489 kts | 95° |
| 2026-05-07 20:59 | 42.88187 | 24.17382 | 33089 ft | 489 kts | 95° |
| 2026-05-07 20:59 | 42.87520 | 24.26538 | 33088 ft | 489 kts | 95° |
| 2026-05-07 21:00 | 42.86840 | 24.35763 | 33092 ft | 488 kts | 95° |
| 2026-05-07 21:00 | 42.86152 | 24.44974 | 33087 ft | 489 kts | 95° |
| 2026-05-07 21:01 | 42.85458 | 24.54192 | 33083 ft | 489 kts | 95° |
| 2026-05-07 21:01 | 42.84763 | 24.63334 | 33099 ft | 488 kts | 95° |
| 2026-05-07 21:02 | 42.84059 | 24.72492 | 33082 ft | 484 kts | 96° |
| 2026-05-07 21:02 | 42.83352 | 24.81593 | 33083 ft | 483 kts | 96° |
| 2026-05-07 21:03 | 42.82638 | 24.90678 | 33074 ft | 482 kts | 97° |
| 2026-05-07 21:03 | 42.81922 | 24.99697 | 33071 ft | 482 kts | 97° |
| 2026-05-07 21:04 | 42.81194 | 25.08769 | 33075 ft | 482 kts | 97° |
| 2026-05-07 21:04 | 42.80458 | 25.17850 | 33075 ft | 485 kts | 97° |
| 2026-05-07 21:05 | 42.79705 | 25.27044 | 33070 ft | 490 kts | 97° |
| 2026-05-07 21:05 | 42.78948 | 25.36211 | 33070 ft | 490 kts | 97° |
| 2026-05-07 21:06 | 42.78180 | 25.45423 | 33073 ft | 490 kts | 97° |
| 2026-05-07 21:06 | 42.77404 | 25.54636 | 33070 ft | 490 kts | 97° |
| 2026-05-07 21:07 | 42.76621 | 25.63840 | 33065 ft | 490 kts | 98° |
| 2026-05-07 21:07 | 42.75835 | 25.72982 | 33074 ft | 490 kts | 98° |
| 2026-05-07 21:08 | 42.75037 | 25.82182 | 33073 ft | 490 kts | 98° |
| 2026-05-07 21:08 | 42.74232 | 25.91372 | 33075 ft | 490 kts | 98° |
| 2026-05-07 21:09 | 42.73422 | 26.00543 | 33067 ft | 487 kts | 98° |
| 2026-05-07 21:09 | 42.72614 | 26.09605 | 33071 ft | 485 kts | 98° |
| 2026-05-07 21:10 | 42.71794 | 26.18711 | 33068 ft | 485 kts | 98° |
| 2026-05-07 21:10 | 42.70966 | 26.27816 | 33072 ft | 485 kts | 98° |
| 2026-05-07 21:11 | 42.70133 | 26.36916 | 33079 ft | 485 kts | 98° |
| 2026-05-07 21:11 | 42.68877 | 26.50475 | 33077 ft | 484 kts | 98° |
| 2026-05-07 21:12 | 42.68027 | 26.59548 | 33083 ft | 484 kts | 98° |
| 2026-05-07 21:12 | 42.67169 | 26.68622 | 33086 ft | 484 kts | 98° |
| 2026-05-07 21:13 | 42.66305 | 26.77692 | 33090 ft | 484 kts | 98° |
| 2026-05-07 21:13 | 42.65433 | 26.86766 | 33084 ft | 484 kts | 98° |
| 2026-05-07 21:14 | 42.64560 | 26.95773 | 33095 ft | 484 kts | 98° |
| 2026-05-07 21:14 | 42.63674 | 27.04837 | 33091 ft | 484 kts | 98° |
| 2026-05-07 21:15 | 42.62779 | 27.13912 | 33097 ft | 485 kts | 98° |
| 2026-05-07 21:15 | 42.61877 | 27.22987 | 33103 ft | 485 kts | 98° |
| 2026-05-07 21:16 | 42.60976 | 27.31985 | 33105 ft | 484 kts | 98° |
| 2026-05-07 21:16 | 42.60063 | 27.41025 | 33102 ft | 484 kts | 98° |
| 2026-05-07 21:17 | 42.59146 | 27.50083 | 33135 ft | 485 kts | 97° |
| 2026-05-07 21:17 | 42.58954 | 27.54660 | 33250 ft | 487 kts | 88° |
| 2026-05-07 21:17 | 42.59111 | 27.59249 | 33380 ft | 487 kts | 86° |
| 2026-05-07 21:18 | 42.59348 | 27.63835 | 33543 ft | 487 kts | 85° |
| 2026-05-07 21:18 | 42.59621 | 27.68353 | 33709 ft | 487 kts | 84° |
| 2026-05-07 21:18 | 42.59914 | 27.72930 | 33869 ft | 487 kts | 84° |
| 2026-05-07 21:18 | 42.60209 | 27.77498 | 34040 ft | 486 kts | 84° |
| 2026-05-07 21:19 | 42.60499 | 27.82071 | 34182 ft | 486 kts | 84° |
| 2026-05-07 21:19 | 42.60783 | 27.86641 | 34303 ft | 486 kts | 84° |
| 2026-05-07 21:19 | 42.61062 | 27.91219 | 34414 ft | 487 kts | 84° |
| 2026-05-07 21:19 | 42.61336 | 27.95796 | 34533 ft | 487 kts | 84° |
| 2026-05-07 21:20 | 42.61607 | 28.00377 | 34635 ft | 488 kts | 84° |
| 2026-05-07 21:20 | 42.61873 | 28.04918 | 34692 ft | 489 kts | 84° |
| 2026-05-07 21:20 | 42.62141 | 28.09519 | 34808 ft | 489 kts | 84° |
| 2026-05-07 21:20 | 42.62407 | 28.14127 | 34923 ft | 489 kts | 84° |
| 2026-05-07 21:21 | 42.62671 | 28.18733 | 35034 ft | 489 kts | 84° |
| 2026-05-07 21:21 | 42.62934 | 28.23338 | 35124 ft | 490 kts | 83° |
| 2026-05-07 21:21 | 42.63457 | 28.32586 | 35119 ft | 491 kts | 84° |
| 2026-05-07 21:22 | 42.63968 | 28.41769 | 35126 ft | 490 kts | 84° |
| 2026-05-07 21:22 | 42.64475 | 28.50999 | 35130 ft | 490 kts | 84° |
| 2026-05-07 21:23 | 42.64974 | 28.60229 | 35126 ft | 490 kts | 83° |
| 2026-05-07 21:23 | 42.65465 | 28.69451 | 35129 ft | 489 kts | 83° |
| 2026-05-07 21:24 | 42.65944 | 28.78579 | 35130 ft | 488 kts | 83° |
| 2026-05-07 21:24 | 42.66419 | 28.87779 | 35133 ft | 488 kts | 83° |
| 2026-05-07 21:25 | 42.66887 | 28.96976 | 35132 ft | 488 kts | 83° |
| 2026-05-07 21:25 | 42.67347 | 29.06170 | 35133 ft | 488 kts | 83° |
| 2026-05-07 21:26 | 42.67800 | 29.15369 | 35135 ft | 488 kts | 83° |
| 2026-05-07 21:26 | 42.68244 | 29.24518 | 35136 ft | 488 kts | 83° |
| 2026-05-07 21:27 | 42.68682 | 29.33725 | 35135 ft | 488 kts | 83° |
| 2026-05-07 21:27 | 42.69113 | 29.42929 | 35135 ft | 488 kts | 83° |
| 2026-05-07 21:28 | 42.69536 | 29.52133 | 35137 ft | 488 kts | 83° |
| 2026-05-07 21:28 | 42.69949 | 29.61259 | 35138 ft | 487 kts | 83° |
| 2026-05-07 21:29 | 42.70357 | 29.70450 | 35140 ft | 487 kts | 83° |
| 2026-05-07 21:29 | 42.70758 | 29.79638 | 35140 ft | 487 kts | 83° |
| 2026-05-07 21:30 | 42.71152 | 29.88829 | 35138 ft | 487 kts | 83° |
| 2026-05-07 21:30 | 42.71537 | 29.98022 | 35137 ft | 486 kts | 83° |
| 2026-05-07 21:31 | 42.71912 | 30.07130 | 35135 ft | 485 kts | 83° |
| 2026-05-07 21:31 | 42.72283 | 30.16297 | 35135 ft | 485 kts | 83° |
| 2026-05-07 21:32 | 42.72646 | 30.25461 | 35137 ft | 485 kts | 83° |
| 2026-05-07 21:32 | 42.72999 | 30.34557 | 35145 ft | 485 kts | 83° |
| 2026-05-07 21:33 | 42.73347 | 30.43717 | 35141 ft | 485 kts | 83° |
| 2026-05-07 21:33 | 42.73687 | 30.52871 | 35137 ft | 484 kts | 83° |
| 2026-05-07 21:34 | 42.73628 | 30.62036 | 35145 ft | 488 kts | 92° |
| 2026-05-07 21:34 | 42.72810 | 30.71206 | 35131 ft | 489 kts | 94° |
| 2026-05-07 21:35 | 42.71870 | 30.80308 | 35137 ft | 489 kts | 94° |
| 2026-05-07 21:35 | 42.70912 | 30.89451 | 35137 ft | 488 kts | 94° |
| 2026-05-07 21:36 | 42.69960 | 30.98592 | 35140 ft | 488 kts | 94° |
| 2026-05-07 21:36 | 42.69009 | 31.07731 | 35140 ft | 488 kts | 94° |
| 2026-05-07 21:37 | 42.68059 | 31.16806 | 35140 ft | 488 kts | 94° |
| 2026-05-07 21:37 | 42.67094 | 31.25941 | 35140 ft | 488 kts | 94° |
| 2026-05-07 21:38 | 42.66122 | 31.35069 | 35143 ft | 488 kts | 94° |
| 2026-05-07 21:38 | 42.65144 | 31.44184 | 35137 ft | 487 kts | 94° |
| 2026-05-07 21:39 | 42.64166 | 31.53228 | 35141 ft | 487 kts | 94° |
| 2026-05-07 21:39 | 42.63176 | 31.62314 | 35140 ft | 486 kts | 94° |
| 2026-05-07 21:40 | 42.62178 | 31.71401 | 35140 ft | 486 kts | 94° |
| 2026-05-07 21:40 | 42.61174 | 31.80479 | 35140 ft | 487 kts | 94° |
| 2026-05-07 21:41 | 42.60169 | 31.89499 | 35143 ft | 486 kts | 94° |
| 2026-05-07 21:41 | 42.59150 | 31.98577 | 35142 ft | 486 kts | 94° |
| 2026-05-07 21:42 | 42.58136 | 32.07648 | 35143 ft | 486 kts | 94° |
| 2026-05-07 21:42 | 42.57114 | 32.16721 | 35137 ft | 486 kts | 95° |
| 2026-05-07 21:43 | 42.56078 | 32.25722 | 35140 ft | 486 kts | 95° |
| 2026-05-07 21:43 | 42.55028 | 32.34776 | 35140 ft | 486 kts | 95° |
| 2026-05-07 21:44 | 42.53975 | 32.43817 | 35144 ft | 485 kts | 95° |
| 2026-05-07 21:44 | 42.52917 | 32.52849 | 35140 ft | 485 kts | 95° |
| 2026-05-07 21:45 | 42.51853 | 32.61861 | 35138 ft | 485 kts | 95° |
| 2026-05-07 21:45 | 42.50787 | 32.70832 | 35138 ft | 485 kts | 95° |
| 2026-05-07 21:46 | 42.49707 | 32.79858 | 35138 ft | 485 kts | 95° |
| 2026-05-07 21:46 | 42.48620 | 32.88879 | 35138 ft | 485 kts | 95° |
| 2026-05-07 21:47 | 42.47525 | 32.97904 | 35137 ft | 485 kts | 95° |
| 2026-05-07 21:47 | 42.46431 | 33.06859 | 35135 ft | 485 kts | 95° |
| 2026-05-07 21:48 | 42.45324 | 33.15876 | 35138 ft | 485 kts | 95° |
| 2026-05-07 21:48 | 42.44209 | 33.24884 | 35137 ft | 485 kts | 95° |
| 2026-05-07 21:49 | 42.43081 | 33.33903 | 35133 ft | 486 kts | 95° |
| 2026-05-07 21:49 | 42.41954 | 33.42871 | 35144 ft | 487 kts | 95° |
| 2026-05-07 21:50 | 42.40818 | 33.51897 | 35141 ft | 486 kts | 95° |
| 2026-05-07 21:50 | 42.39671 | 33.60895 | 35132 ft | 485 kts | 96° |
| 2026-05-07 21:51 | 42.38519 | 33.69877 | 35138 ft | 485 kts | 96° |
| 2026-05-07 21:51 | 42.37370 | 33.78798 | 35133 ft | 484 kts | 96° |
| 2026-05-07 21:52 | 42.36207 | 33.87772 | 35139 ft | 484 kts | 96° |
| 2026-05-07 21:52 | 42.35042 | 33.96739 | 35134 ft | 484 kts | 96° |
| 2026-05-07 21:53 | 42.33869 | 34.05703 | 35139 ft | 484 kts | 96° |
| 2026-05-07 21:53 | 42.32691 | 34.14643 | 35140 ft | 483 kts | 96° |
| 2026-05-07 21:54 | 42.31514 | 34.23529 | 35140 ft | 483 kts | 96° |
| 2026-05-07 21:54 | 42.30324 | 34.32465 | 35141 ft | 484 kts | 96° |
| 2026-05-07 21:55 | 42.29127 | 34.41397 | 35141 ft | 483 kts | 96° |
| 2026-05-07 21:55 | 42.27923 | 34.50311 | 35142 ft | 482 kts | 97° |
| 2026-05-07 21:56 | 42.26722 | 34.59130 | 35145 ft | 480 kts | 97° |
| 2026-05-07 21:56 | 42.25511 | 34.67983 | 35139 ft | 480 kts | 97° |
| 2026-05-07 21:57 | 42.24294 | 34.76829 | 35149 ft | 480 kts | 97° |
| 2026-05-07 21:57 | 42.23068 | 34.85693 | 35149 ft | 480 kts | 97° |
| 2026-05-07 21:58 | 42.21839 | 34.94490 | 35146 ft | 480 kts | 97° |
| 2026-05-07 21:58 | 42.20595 | 35.03343 | 35157 ft | 480 kts | 97° |
| 2026-05-07 21:59 | 42.19345 | 35.12185 | 35152 ft | 480 kts | 97° |
| 2026-05-07 21:59 | 42.18090 | 35.21018 | 35155 ft | 479 kts | 97° |
| 2026-05-07 22:00 | 42.16829 | 35.29843 | 35167 ft | 480 kts | 97° |
| 2026-05-07 22:00 | 42.15569 | 35.38613 | 35165 ft | 480 kts | 97° |
| 2026-05-07 22:01 | 42.14296 | 35.47436 | 35179 ft | 479 kts | 98° |
| 2026-05-07 22:01 | 42.13024 | 35.56210 | 35168 ft | 476 kts | 98° |
| 2026-05-07 22:02 | 42.11750 | 35.64947 | 35168 ft | 475 kts | 98° |
| 2026-05-07 22:02 | 42.10480 | 35.73612 | 35176 ft | 475 kts | 98° |
| 2026-05-07 22:03 | 42.09195 | 35.82334 | 35177 ft | 475 kts | 98° |
| 2026-05-07 22:03 | 42.07903 | 35.91048 | 35176 ft | 474 kts | 98° |
| 2026-05-07 22:04 | 42.06606 | 35.99750 | 35179 ft | 474 kts | 98° |
| 2026-05-07 22:04 | 42.05303 | 36.08450 | 35178 ft | 474 kts | 98° |
| 2026-05-07 22:05 | 42.04000 | 36.17094 | 35181 ft | 474 kts | 98° |
| 2026-05-07 22:05 | 42.02683 | 36.25788 | 35181 ft | 474 kts | 98° |
| 2026-05-07 22:06 | 42.01360 | 36.34477 | 35181 ft | 474 kts | 99° |
| 2026-05-07 22:06 | 42.00030 | 36.43159 | 35181 ft | 474 kts | 99° |
| 2026-05-07 22:07 | 41.98703 | 36.51785 | 35185 ft | 474 kts | 99° |
| 2026-05-07 22:07 | 41.97363 | 36.60436 | 35184 ft | 472 kts | 99° |
| 2026-05-07 22:08 | 41.96020 | 36.69072 | 35184 ft | 472 kts | 99° |
| 2026-05-07 22:08 | 41.94670 | 36.77706 | 35184 ft | 472 kts | 99° |
| 2026-05-07 22:09 | 41.93323 | 36.86279 | 35187 ft | 472 kts | 99° |
| 2026-05-07 22:09 | 41.91959 | 36.94908 | 35189 ft | 472 kts | 99° |
| 2026-05-07 22:10 | 41.90514 | 37.03510 | 35186 ft | 474 kts | 104° |
| 2026-05-07 22:10 | 41.88181 | 37.11805 | 35189 ft | 475 kts | 110° |
| 2026-05-07 22:11 | 41.85637 | 37.19935 | 35189 ft | 476 kts | 111° |
| 2026-05-07 22:11 | 41.83034 | 37.28101 | 35189 ft | 476 kts | 111° |
| 2026-05-07 22:12 | 41.80436 | 37.36270 | 35190 ft | 476 kts | 111° |
| 2026-05-07 22:12 | 41.77843 | 37.44435 | 35192 ft | 476 kts | 111° |
| 2026-05-07 22:13 | 41.75244 | 37.52605 | 35189 ft | 477 kts | 111° |
| 2026-05-07 22:13 | 41.72654 | 37.60723 | 35189 ft | 477 kts | 111° |
| 2026-05-07 22:14 | 41.70041 | 37.68894 | 35189 ft | 477 kts | 111° |
| 2026-05-07 22:14 | 41.67424 | 37.77057 | 35192 ft | 478 kts | 111° |
| 2026-05-07 22:15 | 41.64796 | 37.85214 | 35190 ft | 478 kts | 111° |
| 2026-05-07 22:15 | 41.62163 | 37.93368 | 35191 ft | 478 kts | 111° |
| 2026-05-07 22:16 | 41.59541 | 38.01465 | 35193 ft | 478 kts | 111° |
| 2026-05-07 22:16 | 41.56894 | 38.09618 | 35188 ft | 479 kts | 111° |
| 2026-05-07 22:17 | 41.54235 | 38.17782 | 35189 ft | 479 kts | 111° |
| 2026-05-07 22:17 | 41.51589 | 38.25881 | 35188 ft | 479 kts | 111° |
| 2026-05-07 22:18 | 41.47578 | 38.38116 | 35187 ft | 481 kts | 111° |
| 2026-05-07 22:19 | 41.44890 | 38.46283 | 35190 ft | 481 kts | 111° |
| 2026-05-07 22:19 | 41.42201 | 38.54427 | 35191 ft | 479 kts | 111° |
| 2026-05-07 22:20 | 41.39530 | 38.62496 | 35187 ft | 479 kts | 112° |
| 2026-05-07 22:20 | 41.36835 | 38.70612 | 35187 ft | 480 kts | 112° |
| 2026-05-07 22:21 | 41.34130 | 38.78737 | 35186 ft | 480 kts | 112° |
| 2026-05-07 22:21 | 41.31449 | 38.86867 | 35190 ft | 480 kts | 111° |
| 2026-05-07 22:22 | 41.28794 | 38.95014 | 35187 ft | 480 kts | 111° |
| 2026-05-07 22:22 | 41.26150 | 39.03095 | 35192 ft | 480 kts | 112° |
| 2026-05-07 22:23 | 41.23475 | 39.11228 | 35192 ft | 480 kts | 112° |
| 2026-05-07 22:23 | 41.20786 | 39.19356 | 35195 ft | 481 kts | 112° |
| 2026-05-07 22:24 | 41.18009 | 39.27370 | 35195 ft | 481 kts | 114° |
| 2026-05-07 22:24 | 41.15167 | 39.35402 | 35198 ft | 481 kts | 114° |
| 2026-05-07 22:25 | 41.12333 | 39.43434 | 35201 ft | 481 kts | 114° |
| 2026-05-07 22:25 | 41.09506 | 39.51468 | 35206 ft | 481 kts | 114° |
| 2026-05-07 22:26 | 41.06674 | 39.59505 | 35208 ft | 481 kts | 114° |
| 2026-05-07 22:26 | 41.03860 | 39.67471 | 35219 ft | 481 kts | 114° |
| 2026-05-07 22:27 | 41.01055 | 39.75523 | 35209 ft | 481 kts | 110° |
| 2026-05-07 22:27 | 40.99529 | 39.84071 | 35213 ft | 477 kts | 92° |
| 2026-05-07 22:28 | 40.99177 | 39.92787 | 35210 ft | 478 kts | 90° |
| 2026-05-07 22:28 | 40.99001 | 40.01581 | 35206 ft | 478 kts | 90° |
| 2026-05-07 22:29 | 40.98821 | 40.10385 | 35205 ft | 479 kts | 90° |
| 2026-05-07 22:29 | 40.98607 | 40.19193 | 35199 ft | 478 kts | 91° |
| 2026-05-07 22:30 | 40.98373 | 40.27983 | 35200 ft | 478 kts | 91° |
| 2026-05-07 22:30 | 40.98129 | 40.36720 | 35203 ft | 478 kts | 91° |
| 2026-05-07 22:31 | 40.97878 | 40.45503 | 35207 ft | 478 kts | 91° |
| 2026-05-07 22:31 | 40.97621 | 40.54304 | 35199 ft | 479 kts | 91° |
| 2026-05-07 22:32 | 40.97357 | 40.63123 | 35195 ft | 479 kts | 91° |
| 2026-05-07 22:32 | 40.97089 | 40.71873 | 35196 ft | 479 kts | 91° |
| 2026-05-07 22:33 | 40.96812 | 40.80690 | 35192 ft | 479 kts | 91° |
| 2026-05-07 22:33 | 40.96528 | 40.89505 | 35196 ft | 480 kts | 92° |
| 2026-05-07 22:34 | 40.96242 | 40.98344 | 35201 ft | 482 kts | 92° |
| 2026-05-07 22:34 | 40.95942 | 41.07135 | 35204 ft | 482 kts | 92° |
| 2026-05-07 22:35 | 40.95634 | 41.15990 | 35213 ft | 482 kts | 92° |
| 2026-05-07 22:35 | 40.95320 | 41.24840 | 35218 ft | 482 kts | 92° |
| 2026-05-07 22:36 | 40.95001 | 41.33701 | 35220 ft | 483 kts | 92° |
| 2026-05-07 22:36 | 40.94676 | 41.42527 | 35219 ft | 484 kts | 92° |
| 2026-05-07 22:37 | 40.94342 | 41.51411 | 35228 ft | 484 kts | 92° |
| 2026-05-07 22:37 | 40.94000 | 41.60298 | 35236 ft | 484 kts | 92° |
| 2026-05-07 22:38 | 40.93653 | 41.69181 | 35232 ft | 484 kts | 92° |
| 2026-05-07 22:38 | 40.93301 | 41.78019 | 35246 ft | 485 kts | 93° |
| 2026-05-07 22:39 | 40.92938 | 41.86924 | 35242 ft | 485 kts | 93° |
| 2026-05-07 22:39 | 40.92569 | 41.95823 | 35245 ft | 484 kts | 93° |
| 2026-05-07 22:40 | 40.92193 | 42.04719 | 35249 ft | 484 kts | 93° |
| 2026-05-07 22:40 | 40.91813 | 42.13551 | 35248 ft | 485 kts | 94° |
| 2026-05-07 22:41 | 40.91422 | 42.22465 | 35248 ft | 486 kts | 94° |
| 2026-05-07 22:41 | 40.91024 | 42.31392 | 35249 ft | 487 kts | 94° |
| 2026-05-07 22:42 | 40.90623 | 42.40261 | 35251 ft | 486 kts | 94° |
| 2026-05-07 22:42 | 40.90212 | 42.49182 | 35251 ft | 486 kts | 94° |
| 2026-05-07 22:43 | 40.89793 | 42.58098 | 35249 ft | 487 kts | 94° |
| 2026-05-07 22:43 | 40.89367 | 42.67039 | 35249 ft | 488 kts | 94° |
| 2026-05-07 22:44 | 40.88933 | 42.75999 | 35251 ft | 488 kts | 95° |
| 2026-05-07 22:44 | 40.88496 | 42.84880 | 35252 ft | 488 kts | 95° |
| 2026-05-07 22:45 | 40.88049 | 42.93829 | 35240 ft | 488 kts | 95° |
| 2026-05-07 22:45 | 40.87593 | 43.02802 | 35239 ft | 491 kts | 95° |
| 2026-05-07 22:46 | 40.87128 | 43.11806 | 35228 ft | 491 kts | 95° |
| 2026-05-07 22:46 | 40.86661 | 43.20750 | 35233 ft | 491 kts | 95° |
| 2026-05-07 22:47 | 40.86183 | 43.29752 | 35224 ft | 491 kts | 96° |
| 2026-05-07 22:47 | 40.85697 | 43.38755 | 35226 ft | 491 kts | 96° |
| 2026-05-07 22:48 | 40.85205 | 43.47748 | 35210 ft | 491 kts | 96° |
| 2026-05-07 22:48 | 40.84709 | 43.56696 | 35213 ft | 492 kts | 96° |
| 2026-05-07 22:49 | 40.84203 | 43.65691 | 35210 ft | 491 kts | 96° |
| 2026-05-07 22:49 | 40.83752 | 43.74705 | 35197 ft | 492 kts | 94° |
| 2026-05-07 22:50 | 40.83490 | 43.83750 | 35211 ft | 494 kts | 94° |
| 2026-05-07 22:50 | 40.83239 | 43.92759 | 35211 ft | 495 kts | 94° |
| 2026-05-07 22:51 | 40.82949 | 44.01831 | 35210 ft | 494 kts | 95° |
| 2026-05-07 22:51 | 40.82636 | 44.10889 | 35211 ft | 494 kts | 95° |
| 2026-05-07 22:52 | 40.82312 | 44.19953 | 35203 ft | 494 kts | 95° |
| 2026-05-07 22:52 | 40.81983 | 44.28967 | 35211 ft | 496 kts | 95° |
| 2026-05-07 22:53 | 40.81646 | 44.38060 | 35211 ft | 496 kts | 95° |
| 2026-05-07 22:53 | 40.81304 | 44.47152 | 35210 ft | 496 kts | 96° |
| 2026-05-07 22:54 | 40.80954 | 44.56244 | 35212 ft | 496 kts | 96° |
| 2026-05-07 22:54 | 40.80600 | 44.65284 | 35199 ft | 497 kts | 96° |
| 2026-05-07 22:55 | 40.80232 | 44.74417 | 35207 ft | 500 kts | 96° |
| 2026-05-07 22:55 | 40.79856 | 44.83581 | 35200 ft | 500 kts | 96° |
| 2026-05-07 22:56 | 40.79472 | 44.92742 | 35201 ft | 500 kts | 97° |
| 2026-05-07 22:56 | 40.79085 | 45.01832 | 35193 ft | 500 kts | 97° |
| 2026-05-07 22:57 | 40.78690 | 45.10997 | 35197 ft | 502 kts | 97° |
| 2026-05-07 22:57 | 40.78280 | 45.20208 | 35193 ft | 504 kts | 98° |
| 2026-05-07 22:58 | 40.77865 | 45.29441 | 35176 ft | 504 kts | 98° |
| 2026-05-07 22:58 | 40.77442 | 45.38660 | 35181 ft | 504 kts | 98° |
| 2026-05-07 22:59 | 40.77043 | 45.47825 | 35156 ft | 505 kts | 95° |
| 2026-05-07 22:59 | 40.77607 | 45.57166 | 35181 ft | 516 kts | 87° |
| 2026-05-07 23:00 | 40.78556 | 45.66574 | 35178 ft | 518 kts | 86° |
| 2026-05-07 23:00 | 40.79561 | 45.76001 | 35174 ft | 518 kts | 86° |
| 2026-05-07 23:01 | 40.80542 | 45.85415 | 35168 ft | 518 kts | 86° |
| 2026-05-07 23:01 | 40.81494 | 45.94782 | 35166 ft | 518 kts | 86° |
| 2026-05-07 23:02 | 40.82438 | 46.04204 | 35162 ft | 518 kts | 86° |
| 2026-05-07 23:02 | 40.83376 | 46.13633 | 35162 ft | 519 kts | 87° |
| 2026-05-07 23:03 | 40.84308 | 46.23079 | 35163 ft | 519 kts | 87° |
| 2026-05-07 23:03 | 40.85229 | 46.32482 | 35160 ft | 520 kts | 87° |
| 2026-05-07 23:04 | 40.86148 | 46.41951 | 35159 ft | 520 kts | 87° |
| 2026-05-07 23:04 | 40.87059 | 46.51415 | 35159 ft | 520 kts | 87° |
| 2026-05-07 23:05 | 40.87963 | 46.60898 | 35159 ft | 520 kts | 87° |
| 2026-05-07 23:05 | 40.88853 | 46.70318 | 35151 ft | 521 kts | 88° |
| 2026-05-07 23:06 | 40.89750 | 46.79836 | 35153 ft | 524 kts | 87° |
| 2026-05-07 23:06 | 40.91275 | 46.89311 | 35161 ft | 528 kts | 81° |
| 2026-05-07 23:07 | 40.93013 | 46.98742 | 35155 ft | 528 kts | 80° |
| 2026-05-07 23:07 | 40.94778 | 47.08183 | 35166 ft | 530 kts | 80° |
| 2026-05-07 23:08 | 40.96519 | 47.17584 | 35168 ft | 530 kts | 80° |
| 2026-05-07 23:08 | 40.98257 | 47.27065 | 35172 ft | 530 kts | 81° |
| 2026-05-07 23:09 | 40.99984 | 47.36553 | 35168 ft | 530 kts | 81° |
| 2026-05-07 23:09 | 41.01706 | 47.46068 | 35171 ft | 532 kts | 81° |
| 2026-05-07 23:10 | 41.03415 | 47.55553 | 35169 ft | 534 kts | 81° |
| 2026-05-07 23:10 | 41.05132 | 47.65118 | 35161 ft | 533 kts | 81° |
| 2026-05-07 23:11 | 41.06838 | 47.74682 | 35161 ft | 533 kts | 81° |
| 2026-05-07 23:11 | 41.08537 | 47.84241 | 35166 ft | 533 kts | 81° |
| 2026-05-07 23:12 | 41.10269 | 47.93731 | 35165 ft | 535 kts | 76° |
| 2026-05-07 23:12 | 41.11630 | 47.98344 | 35171 ft | 539 kts | 65° |
| 2026-05-07 23:12 | 41.13555 | 48.02612 | 35181 ft | 540 kts | 57° |
| 2026-05-07 23:13 | 41.17887 | 48.10756 | 35183 ft | 541 kts | 54° |
| 2026-05-07 23:13 | 41.22369 | 48.18792 | 35165 ft | 542 kts | 54° |
| 2026-05-07 23:14 | 41.26842 | 48.26844 | 35178 ft | 541 kts | 54° |
| 2026-05-07 23:14 | 41.31254 | 48.34876 | 35153 ft | 541 kts | 54° |
| 2026-05-07 23:15 | 41.35674 | 48.42973 | 35157 ft | 541 kts | 54° |
| 2026-05-07 23:15 | 41.40095 | 48.51096 | 35141 ft | 541 kts | 54° |
| 2026-05-07 23:16 | 41.44519 | 48.59204 | 35131 ft | 541 kts | 54° |
| 2026-05-07 23:16 | 41.48993 | 48.67202 | 35129 ft | 541 kts | 53° |
| 2026-05-07 23:17 | 41.53504 | 48.75246 | 35118 ft | 541 kts | 54° |
| 2026-05-07 23:17 | 41.57781 | 48.83512 | 35118 ft | 541 kts | 57° |
| 2026-05-07 23:18 | 41.61911 | 48.91912 | 35109 ft | 541 kts | 57° |
| 2026-05-07 23:18 | 41.66034 | 49.00245 | 35111 ft | 541 kts | 57° |
| 2026-05-07 23:19 | 41.70210 | 49.08615 | 35109 ft | 541 kts | 57° |
| 2026-05-07 23:19 | 41.74391 | 49.16985 | 35102 ft | 541 kts | 57° |
| 2026-05-07 23:20 | 41.78564 | 49.25361 | 35107 ft | 541 kts | 57° |
| 2026-05-07 23:20 | 41.82721 | 49.33676 | 35108 ft | 541 kts | 55° |
| 2026-05-07 23:21 | 41.87152 | 49.41816 | 35103 ft | 541 kts | 53° |
| 2026-05-07 23:21 | 41.91657 | 49.49895 | 35105 ft | 541 kts | 53° |
| 2026-05-07 23:22 | 41.96129 | 49.58032 | 35108 ft | 541 kts | 54° |
| 2026-05-07 23:22 | 42.00563 | 49.66198 | 35103 ft | 541 kts | 54° |
| 2026-05-07 23:23 | 42.04954 | 49.74326 | 35104 ft | 541 kts | 54° |
| 2026-05-07 23:23 | 42.09369 | 49.82520 | 35102 ft | 541 kts | 54° |
| 2026-05-07 23:24 | 42.13780 | 49.90725 | 35102 ft | 541 kts | 54° |
| 2026-05-07 23:24 | 42.18156 | 49.98886 | 35098 ft | 541 kts | 54° |
| 2026-05-07 23:25 | 42.22558 | 50.07118 | 35101 ft | 541 kts | 54° |
| 2026-05-07 23:25 | 42.26952 | 50.15356 | 35098 ft | 541 kts | 54° |
| 2026-05-07 23:26 | 42.31341 | 50.23608 | 35098 ft | 541 kts | 54° |
| 2026-05-07 23:26 | 42.35725 | 50.31873 | 35096 ft | 541 kts | 54° |
| 2026-05-07 23:27 | 42.42264 | 50.44243 | 35094 ft | 541 kts | 54° |
| 2026-05-07 23:27 | 42.46692 | 50.52463 | 35096 ft | 541 kts | 52° |
| 2026-05-07 23:28 | 42.51334 | 50.60485 | 35088 ft | 541 kts | 51° |
| 2026-05-07 23:28 | 42.55963 | 50.68456 | 35088 ft | 541 kts | 51° |
| 2026-05-07 23:29 | 42.60580 | 50.76514 | 35086 ft | 541 kts | 51° |
| 2026-05-07 23:29 | 42.65173 | 50.84605 | 35086 ft | 541 kts | 51° |
| 2026-05-07 23:30 | 42.68982 | 50.91340 | 35086 ft | 541 kts | 52° |
| 2026-05-07 23:30 | 42.74338 | 51.00832 | 35086 ft | 541 kts | 52° |
| 2026-05-07 23:31 | 42.78881 | 51.08905 | 35080 ft | 541 kts | 52° |
| 2026-05-07 23:31 | 42.83453 | 51.17048 | 35078 ft | 541 kts | 52° |
| 2026-05-07 23:32 | 42.88016 | 51.25201 | 35085 ft | 541 kts | 52° |
| 2026-05-07 23:32 | 42.92560 | 51.33341 | 35067 ft | 539 kts | 52° |
| 2026-05-07 23:33 | 42.97063 | 51.41429 | 35066 ft | 539 kts | 52° |
| 2026-05-07 23:33 | 43.01589 | 51.49579 | 35067 ft | 539 kts | 52° |
| 2026-05-07 23:34 | 43.06110 | 51.57745 | 35061 ft | 538 kts | 52° |
| 2026-05-07 23:34 | 43.09857 | 51.64530 | 35065 ft | 538 kts | 52° |
| 2026-05-07 23:35 | 43.15092 | 51.74034 | 35065 ft | 538 kts | 52° |
| 2026-05-07 23:35 | 43.19587 | 51.82220 | 35062 ft | 538 kts | 52° |
| 2026-05-07 23:36 | 43.23324 | 51.89044 | 35059 ft | 538 kts | 52° |
| 2026-05-07 23:36 | 43.27807 | 51.97249 | 35062 ft | 538 kts | 52° |
| 2026-05-07 23:37 | 43.32290 | 52.05477 | 35060 ft | 538 kts | 52° |
| 2026-05-07 23:37 | 43.37498 | 52.15064 | 35062 ft | 539 kts | 52° |
| 2026-05-07 23:38 | 43.41971 | 52.23325 | 35061 ft | 539 kts | 52° |
| 2026-05-07 23:38 | 43.45682 | 52.30195 | 35061 ft | 538 kts | 52° |
| 2026-05-07 23:39 | 43.50141 | 52.38472 | 35061 ft | 538 kts | 52° |
| 2026-05-07 23:39 | 43.55311 | 52.48096 | 35054 ft | 538 kts | 52° |
| 2026-05-07 23:40 | 43.59033 | 52.55046 | 35050 ft | 538 kts | 52° |
| 2026-05-07 23:40 | 43.63442 | 52.63299 | 35047 ft | 538 kts | 52° |
| 2026-05-07 23:41 | 43.67872 | 52.71619 | 35062 ft | 538 kts | 52° |
| 2026-05-07 23:41 | 43.72986 | 52.81287 | 35047 ft | 535 kts | 52° |
| 2026-05-07 23:42 | 43.76631 | 52.88203 | 35048 ft | 535 kts | 52° |
| 2026-05-07 23:42 | 43.81010 | 52.96527 | 35038 ft | 535 kts | 52° |
| 2026-05-07 23:43 | 43.85379 | 53.04854 | 35027 ft | 534 kts | 52° |
| 2026-05-07 23:43 | 43.89738 | 53.13186 | 35029 ft | 533 kts | 53° |
| 2026-05-07 23:44 | 43.94080 | 53.21513 | 35029 ft | 533 kts | 53° |
| 2026-05-07 23:44 | 43.98389 | 53.29801 | 35028 ft | 533 kts | 53° |
| 2026-05-07 23:45 | 44.02719 | 53.38154 | 35033 ft | 532 kts | 53° |
| 2026-05-07 23:45 | 44.07035 | 53.46503 | 35030 ft | 532 kts | 53° |
| 2026-05-07 23:46 | 44.11353 | 53.54880 | 35035 ft | 532 kts | 53° |
| 2026-05-07 23:46 | 44.15664 | 53.63267 | 35019 ft | 533 kts | 53° |
| 2026-05-07 23:47 | 44.19949 | 53.71627 | 35022 ft | 534 kts | 53° |
| 2026-05-07 23:47 | 44.24259 | 53.80060 | 35021 ft | 534 kts | 53° |
| 2026-05-07 23:48 | 44.28559 | 53.88499 | 35018 ft | 534 kts | 53° |
| 2026-05-07 23:48 | 44.32854 | 53.96953 | 35019 ft | 534 kts | 53° |
| 2026-05-07 23:49 | 44.37116 | 54.05366 | 35023 ft | 534 kts | 53° |
| 2026-05-07 23:49 | 44.41393 | 54.13833 | 35016 ft | 533 kts | 53° |
| 2026-05-07 23:50 | 44.45669 | 54.22323 | 35013 ft | 533 kts | 53° |
| 2026-05-07 23:50 | 44.49934 | 54.30815 | 35005 ft | 532 kts | 53° |
| 2026-05-07 23:51 | 44.54165 | 54.39266 | 35000 ft | 528 kts | 54° |
| 2026-05-07 23:51 | 44.58346 | 54.47642 | 35001 ft | 528 kts | 54° |
| 2026-05-07 23:52 | 44.62555 | 54.56097 | 34995 ft | 528 kts | 54° |
| 2026-05-07 23:52 | 44.67014 | 54.64261 | 34999 ft | 525 kts | 42° |
| 2026-05-07 23:53 | 44.72274 | 54.71332 | 34993 ft | 524 kts | 40° |
| 2026-05-07 23:53 | 44.77631 | 54.78186 | 34980 ft | 523 kts | 39° |
| 2026-05-07 23:54 | 44.82992 | 54.85019 | 34978 ft | 519 kts | 39° |
| 2026-05-07 23:54 | 44.88338 | 54.91878 | 34982 ft | 520 kts | 39° |
| 2026-05-07 23:55 | 44.93668 | 54.98756 | 34975 ft | 520 kts | 40° |
| 2026-05-07 23:55 | 44.99001 | 55.05662 | 34985 ft | 520 kts | 40° |
| 2026-05-07 23:56 | 45.04281 | 55.12516 | 34975 ft | 518 kts | 40° |
| 2026-05-07 23:56 | 45.08861 | 55.20338 | 34961 ft | 519 kts | 60° |
| 2026-05-07 23:57 | 45.11834 | 55.29620 | 34969 ft | 518 kts | 69° |
| 2026-05-07 23:57 | 45.14446 | 55.39141 | 34972 ft | 519 kts | 70° |
| 2026-05-07 23:58 | 45.16991 | 55.48632 | 34971 ft | 518 kts | 70° |
| 2026-05-07 23:58 | 45.19569 | 55.58174 | 34969 ft | 518 kts | 70° |
| 2026-05-07 23:59 | 45.22157 | 55.67712 | 34966 ft | 519 kts | 70° |
| 2026-05-07 23:59 | 45.24743 | 55.77261 | 34966 ft | 518 kts | 70° |
| 2026-05-08 00:00 | 45.27321 | 55.86820 | 34971 ft | 519 kts | 70° |
| 2026-05-08 00:00 | 45.29872 | 55.96325 | 34960 ft | 519 kts | 70° |
| 2026-05-08 00:01 | 45.32443 | 56.05942 | 34969 ft | 521 kts | 70° |
| 2026-05-08 00:01 | 45.35009 | 56.15578 | 34962 ft | 522 kts | 70° |
| 2026-05-08 00:02 | 45.37569 | 56.25233 | 34964 ft | 522 kts | 70° |
| 2026-05-08 00:02 | 45.40105 | 56.34833 | 34972 ft | 522 kts | 70° |
| 2026-05-08 00:03 | 45.42652 | 56.44516 | 34966 ft | 522 kts | 70° |
| 2026-05-08 00:03 | 45.45185 | 56.54188 | 34966 ft | 522 kts | 70° |
| 2026-05-08 00:04 | 45.47715 | 56.63885 | 34972 ft | 522 kts | 70° |
| 2026-05-08 00:04 | 45.50233 | 56.73580 | 34974 ft | 522 kts | 70° |
| 2026-05-08 00:05 | 45.52730 | 56.83228 | 34971 ft | 522 kts | 71° |
| 2026-05-08 00:05 | 45.55232 | 56.92940 | 34973 ft | 522 kts | 71° |
| 2026-05-08 00:06 | 45.57727 | 57.02666 | 34969 ft | 522 kts | 71° |
| 2026-05-08 00:06 | 45.60214 | 57.12403 | 34972 ft | 522 kts | 71° |
| 2026-05-08 00:07 | 45.62677 | 57.22081 | 34970 ft | 522 kts | 71° |
| 2026-05-08 00:07 | 45.65148 | 57.31834 | 34971 ft | 522 kts | 71° |
| 2026-05-08 00:08 | 45.67611 | 57.41598 | 34975 ft | 522 kts | 71° |
| 2026-05-08 00:08 | 45.70064 | 57.51362 | 34976 ft | 521 kts | 71° |
| 2026-05-08 00:09 | 45.72505 | 57.61124 | 34970 ft | 521 kts | 71° |
| 2026-05-08 00:09 | 45.74924 | 57.70834 | 34970 ft | 521 kts | 71° |
| 2026-05-08 00:10 | 45.77351 | 57.80620 | 34977 ft | 522 kts | 71° |
| 2026-05-08 00:10 | 45.79770 | 57.90423 | 34977 ft | 522 kts | 71° |
| 2026-05-08 00:11 | 45.82181 | 58.00230 | 34975 ft | 522 kts | 71° |
| 2026-05-08 00:11 | 45.84569 | 58.09990 | 34985 ft | 522 kts | 72° |
| 2026-05-08 00:12 | 45.86963 | 58.19811 | 34981 ft | 522 kts | 72° |
| 2026-05-08 00:12 | 45.89348 | 58.29643 | 34982 ft | 522 kts | 72° |
| 2026-05-08 00:13 | 45.91710 | 58.39419 | 34981 ft | 522 kts | 72° |
| 2026-05-08 00:13 | 45.94077 | 58.49264 | 34983 ft | 522 kts | 72° |
| 2026-05-08 00:14 | 45.96442 | 58.59140 | 34967 ft | 522 kts | 72° |
| 2026-05-08 00:14 | 45.98795 | 58.69010 | 34981 ft | 522 kts | 72° |
| 2026-05-08 00:15 | 46.01140 | 58.78892 | 34977 ft | 522 kts | 72° |
| 2026-05-08 00:15 | 46.03462 | 58.88719 | 34978 ft | 521 kts | 72° |
| 2026-05-08 00:16 | 46.05781 | 58.98580 | 34979 ft | 520 kts | 72° |
| 2026-05-08 00:16 | 46.08091 | 59.08447 | 34962 ft | 520 kts | 72° |
| 2026-05-08 00:17 | 46.10391 | 59.18314 | 34970 ft | 520 kts | 72° |
| 2026-05-08 00:17 | 46.12669 | 59.28134 | 34975 ft | 520 kts | 72° |
| 2026-05-08 00:18 | 46.14955 | 59.38030 | 34961 ft | 520 kts | 73° |
| 2026-05-08 00:18 | 46.17238 | 59.47963 | 34977 ft | 523 kts | 73° |
| 2026-05-08 00:19 | 46.19522 | 59.57942 | 34976 ft | 524 kts | 73° |
| 2026-05-08 00:19 | 46.21780 | 59.67852 | 34977 ft | 524 kts | 73° |
| 2026-05-08 00:20 | 46.24051 | 59.77877 | 35108 ft | 527 kts | 73° |
| 2026-05-08 00:20 | 46.25184 | 59.82922 | 35234 ft | 527 kts | 73° |
| 2026-05-08 00:20 | 46.26310 | 59.87960 | 35387 ft | 527 kts | 73° |
| 2026-05-08 00:21 | 46.27433 | 59.92996 | 35552 ft | 526 kts | 73° |
| 2026-05-08 00:21 | 46.28555 | 59.98034 | 35730 ft | 525 kts | 73° |
| 2026-05-08 00:21 | 46.29670 | 60.03052 | 35880 ft | 525 kts | 73° |
| 2026-05-08 00:21 | 46.30768 | 60.08007 | 35993 ft | 525 kts | 73° |
| 2026-05-08 00:22 | 46.31880 | 60.13034 | 36121 ft | 525 kts | 73° |
| 2026-05-08 00:22 | 46.32991 | 60.18067 | 36252 ft | 525 kts | 73° |
| 2026-05-08 00:22 | 46.34097 | 60.23087 | 36380 ft | 524 kts | 73° |
| 2026-05-08 00:22 | 46.35202 | 60.28118 | 36504 ft | 524 kts | 73° |
| 2026-05-08 00:23 | 46.36305 | 60.33151 | 36624 ft | 524 kts | 73° |
| 2026-05-08 00:23 | 46.37405 | 60.38183 | 36750 ft | 524 kts | 73° |
| 2026-05-08 00:23 | 46.38501 | 60.43208 | 36872 ft | 524 kts | 73° |
| 2026-05-08 00:23 | 46.39594 | 60.48233 | 36957 ft | 524 kts | 73° |
| 2026-05-08 00:24 | 46.41765 | 60.58242 | 36974 ft | 522 kts | 73° |
| 2026-05-08 00:24 | 46.43930 | 60.68276 | 36967 ft | 521 kts | 74° |
| 2026-05-08 00:25 | 46.46081 | 60.78298 | 36988 ft | 521 kts | 74° |
| 2026-05-08 00:25 | 46.48226 | 60.88337 | 36972 ft | 521 kts | 74° |
| 2026-05-08 00:26 | 46.50364 | 60.98390 | 36970 ft | 521 kts | 74° |
| 2026-05-08 00:26 | 46.52477 | 61.08373 | 36961 ft | 521 kts | 74° |
| 2026-05-08 00:27 | 46.54595 | 61.18430 | 36979 ft | 521 kts | 74° |
| 2026-05-08 00:27 | 46.56704 | 61.28497 | 36963 ft | 521 kts | 74° |
| 2026-05-08 00:28 | 46.58804 | 61.38571 | 36972 ft | 521 kts | 74° |
| 2026-05-08 00:28 | 46.60882 | 61.48583 | 36971 ft | 520 kts | 75° |
| 2026-05-08 00:29 | 46.62959 | 61.58647 | 36972 ft | 520 kts | 75° |
| 2026-05-08 00:29 | 46.65031 | 61.68736 | 36970 ft | 520 kts | 75° |
| 2026-05-08 00:30 | 46.67092 | 61.78821 | 36965 ft | 520 kts | 75° |
| 2026-05-08 00:30 | 46.69127 | 61.88826 | 36973 ft | 518 kts | 75° |
| 2026-05-08 00:31 | 46.71164 | 61.98898 | 36969 ft | 518 kts | 75° |
| 2026-05-08 00:31 | 46.73192 | 62.08973 | 36968 ft | 518 kts | 75° |
| 2026-05-08 00:32 | 46.75196 | 62.18981 | 36967 ft | 517 kts | 75° |
| 2026-05-08 00:32 | 46.77199 | 62.29032 | 36969 ft | 516 kts | 75° |
| 2026-05-08 00:33 | 46.79190 | 62.39079 | 36968 ft | 516 kts | 75° |
| 2026-05-08 00:33 | 46.81173 | 62.49137 | 36968 ft | 516 kts | 75° |
| 2026-05-08 00:34 | 46.83135 | 62.59135 | 36965 ft | 516 kts | 76° |
| 2026-05-08 00:34 | 46.85100 | 62.69201 | 36965 ft | 516 kts | 76° |
| 2026-05-08 00:35 | 46.87058 | 62.79283 | 36966 ft | 516 kts | 76° |
| 2026-05-08 00:35 | 46.89007 | 62.89369 | 36948 ft | 516 kts | 76° |
| 2026-05-08 00:36 | 46.90946 | 62.99460 | 36956 ft | 515 kts | 76° |
| 2026-05-08 00:36 | 46.92862 | 63.09482 | 36952 ft | 515 kts | 76° |
| 2026-05-08 00:37 | 46.94779 | 63.19565 | 36955 ft | 515 kts | 76° |
| 2026-05-08 00:38 | 46.97641 | 63.34715 | 36961 ft | 514 kts | 77° |
| 2026-05-08 00:38 | 46.99536 | 63.44811 | 36943 ft | 514 kts | 77° |
| 2026-05-08 00:39 | 47.01419 | 63.54905 | 36958 ft | 514 kts | 77° |
| 2026-05-08 00:39 | 47.03283 | 63.64947 | 36946 ft | 514 kts | 77° |
| 2026-05-08 00:40 | 47.05150 | 63.75057 | 36935 ft | 513 kts | 77° |
| 2026-05-08 00:40 | 47.07005 | 63.85164 | 36951 ft | 513 kts | 77° |
| 2026-05-08 00:41 | 47.08839 | 63.95207 | 36950 ft | 513 kts | 77° |
| 2026-05-08 00:41 | 47.10676 | 64.05323 | 36949 ft | 513 kts | 77° |
| 2026-05-08 00:42 | 47.12503 | 64.15442 | 36941 ft | 513 kts | 77° |
| 2026-05-08 00:42 | 47.14324 | 64.25580 | 36941 ft | 513 kts | 77° |
| 2026-05-08 00:43 | 47.16134 | 64.35714 | 36929 ft | 513 kts | 77° |
| 2026-05-08 00:43 | 47.17923 | 64.45791 | 36938 ft | 513 kts | 78° |
| 2026-05-08 00:44 | 47.19716 | 64.55939 | 36942 ft | 513 kts | 78° |
| 2026-05-08 00:44 | 47.21508 | 64.66098 | 36941 ft | 513 kts | 78° |
| 2026-05-08 00:45 | 47.23293 | 64.76274 | 36940 ft | 513 kts | 78° |
| 2026-05-08 00:45 | 47.25057 | 64.86381 | 36937 ft | 513 kts | 78° |
| 2026-05-08 00:46 | 47.26821 | 64.96554 | 36945 ft | 513 kts | 78° |
| 2026-05-08 00:46 | 47.28576 | 65.06731 | 36944 ft | 513 kts | 78° |
| 2026-05-08 00:47 | 47.30320 | 65.16926 | 36948 ft | 513 kts | 78° |
| 2026-05-08 00:47 | 47.32042 | 65.27049 | 36948 ft | 512 kts | 79° |
| 2026-05-08 00:48 | 47.33761 | 65.37209 | 36946 ft | 510 kts | 79° |
| 2026-05-08 00:48 | 47.35467 | 65.47361 | 36952 ft | 510 kts | 79° |
| 2026-05-08 00:49 | 47.37163 | 65.57508 | 36955 ft | 510 kts | 79° |
| 2026-05-08 00:49 | 47.38840 | 65.67600 | 36957 ft | 510 kts | 79° |
| 2026-05-08 00:50 | 47.40525 | 65.77798 | 36965 ft | 511 kts | 79° |
| 2026-05-08 00:50 | 47.42207 | 65.87996 | 36960 ft | 512 kts | 79° |
| 2026-05-08 00:51 | 47.43950 | 65.98198 | 36961 ft | 512 kts | 79° |
| 2026-05-08 00:51 | 47.45689 | 66.08326 | 36960 ft | 514 kts | 79° |
| 2026-05-08 00:52 | 47.47432 | 66.18592 | 36969 ft | 516 kts | 79° |
| 2026-05-08 00:52 | 47.49167 | 66.28900 | 36969 ft | 516 kts | 79° |
| 2026-05-08 00:53 | 47.50889 | 66.39205 | 36969 ft | 516 kts | 79° |
| 2026-05-08 00:53 | 47.52602 | 66.49524 | 36971 ft | 518 kts | 79° |
| 2026-05-08 00:54 | 47.54300 | 66.59812 | 36973 ft | 518 kts | 79° |
| 2026-05-08 00:54 | 47.56002 | 66.70179 | 36977 ft | 518 kts | 79° |
| 2026-05-08 00:55 | 47.57672 | 66.80560 | 36939 ft | 518 kts | 80° |
| 2026-05-08 00:55 | 47.59285 | 66.90961 | 36980 ft | 518 kts | 80° |
| 2026-05-08 00:56 | 47.60877 | 67.01300 | 36977 ft | 518 kts | 80° |
| 2026-05-08 00:56 | 47.62477 | 67.11706 | 36977 ft | 518 kts | 80° |
| 2026-05-08 00:57 | 47.64072 | 67.22116 | 36979 ft | 518 kts | 80° |
| 2026-05-08 00:57 | 47.65657 | 67.32524 | 36976 ft | 517 kts | 80° |
| 2026-05-08 00:58 | 47.67232 | 67.42934 | 36982 ft | 517 kts | 80° |
| 2026-05-08 00:58 | 47.68786 | 67.53280 | 36983 ft | 517 kts | 80° |
| 2026-05-08 00:59 | 47.70342 | 67.63703 | 36974 ft | 517 kts | 80° |
| 2026-05-08 00:59 | 47.71886 | 67.74119 | 36978 ft | 517 kts | 80° |
| 2026-05-08 01:00 | 47.73234 | 67.84581 | 36984 ft | 515 kts | 84° |
| 2026-05-08 01:00 | 47.74164 | 67.95053 | 36982 ft | 514 kts | 86° |
| 2026-05-08 01:01 | 47.75081 | 68.05590 | 36981 ft | 515 kts | 85° |
| 2026-05-08 01:01 | 47.76056 | 68.16118 | 36982 ft | 515 kts | 85° |
| 2026-05-08 01:02 | 47.77054 | 68.26659 | 36978 ft | 515 kts | 85° |
| 2026-05-08 01:02 | 47.78048 | 68.37196 | 36980 ft | 514 kts | 85° |
| 2026-05-08 01:03 | 47.79021 | 68.47656 | 36980 ft | 514 kts | 84° |
| 2026-05-08 01:03 | 47.79988 | 68.58178 | 36984 ft | 513 kts | 85° |
| 2026-05-08 01:04 | 47.80943 | 68.68677 | 36986 ft | 513 kts | 85° |
| 2026-05-08 01:04 | 47.81871 | 68.79190 | 36974 ft | 512 kts | 87° |
| 2026-05-08 01:05 | 47.81981 | 68.89719 | 36977 ft | 508 kts | 94° |
| 2026-05-08 01:05 | 47.81815 | 69.00171 | 36979 ft | 508 kts | 95° |
| 2026-05-08 01:06 | 47.81597 | 69.10688 | 36979 ft | 509 kts | 95° |
| 2026-05-08 01:06 | 47.81379 | 69.21194 | 36982 ft | 508 kts | 94° |
| 2026-05-08 01:07 | 47.81162 | 69.31689 | 36982 ft | 508 kts | 94° |
| 2026-05-08 01:07 | 47.80939 | 69.42124 | 36972 ft | 509 kts | 94° |
| 2026-05-08 01:08 | 47.80705 | 69.52647 | 36977 ft | 509 kts | 94° |
| 2026-05-08 01:08 | 47.80462 | 69.63161 | 36967 ft | 509 kts | 94° |
| 2026-05-08 01:09 | 47.80209 | 69.73682 | 36977 ft | 509 kts | 95° |
| 2026-05-08 01:09 | 47.79948 | 69.84125 | 36970 ft | 509 kts | 94° |
| 2026-05-08 01:10 | 47.79675 | 69.94660 | 36973 ft | 510 kts | 94° |
| 2026-05-08 01:10 | 47.79392 | 70.05195 | 36974 ft | 510 kts | 94° |
| 2026-05-08 01:11 | 47.79100 | 70.15734 | 36985 ft | 510 kts | 94° |
| 2026-05-08 01:11 | 47.78801 | 70.26194 | 36993 ft | 510 kts | 94° |
| 2026-05-08 01:12 | 47.78489 | 70.36727 | 36994 ft | 510 kts | 94° |
| 2026-05-08 01:12 | 47.78168 | 70.47256 | 36991 ft | 510 kts | 94° |
| 2026-05-08 01:13 | 47.77837 | 70.57786 | 36998 ft | 510 kts | 94° |
| 2026-05-08 01:13 | 47.77498 | 70.68319 | 36997 ft | 510 kts | 94° |
| 2026-05-08 01:14 | 47.77147 | 70.78791 | 37000 ft | 511 kts | 94° |
| 2026-05-08 01:14 | 47.76784 | 70.89341 | 37005 ft | 511 kts | 94° |
| 2026-05-08 01:15 | 47.76411 | 70.99895 | 37004 ft | 511 kts | 94° |
| 2026-05-08 01:15 | 47.76030 | 71.10434 | 37005 ft | 511 kts | 95° |
| 2026-05-08 01:16 | 47.75638 | 71.20984 | 37002 ft | 511 kts | 94° |
| 2026-05-08 01:16 | 47.75240 | 71.31442 | 37002 ft | 510 kts | 94° |
| 2026-05-08 01:17 | 47.74831 | 71.41946 | 36995 ft | 510 kts | 94° |
| 2026-05-08 01:17 | 47.74412 | 71.52453 | 37001 ft | 510 kts | 94° |
| 2026-05-08 01:18 | 47.73983 | 71.62965 | 36993 ft | 509 kts | 94° |
| 2026-05-08 01:18 | 47.73550 | 71.73361 | 37000 ft | 506 kts | 94° |
| 2026-05-08 01:19 | 47.73107 | 71.83764 | 37001 ft | 504 kts | 94° |
| 2026-05-08 01:19 | 47.72556 | 71.94152 | 37009 ft | 504 kts | 96° |
| 2026-05-08 01:20 | 47.71927 | 72.04523 | 37009 ft | 504 kts | 96° |
| 2026-05-08 01:20 | 47.71304 | 72.14823 | 37008 ft | 504 kts | 95° |
| 2026-05-08 01:21 | 47.70684 | 72.25183 | 37014 ft | 503 kts | 95° |
| 2026-05-08 01:21 | 47.70061 | 72.35523 | 37016 ft | 503 kts | 96° |
| 2026-05-08 01:22 | 47.69430 | 72.45841 | 37015 ft | 502 kts | 96° |
| 2026-05-08 01:22 | 47.68793 | 72.56093 | 37018 ft | 502 kts | 96° |
| 2026-05-08 01:23 | 47.68143 | 72.66402 | 37016 ft | 502 kts | 96° |
| 2026-05-08 01:23 | 47.67483 | 72.76718 | 37017 ft | 502 kts | 96° |
| 2026-05-08 01:24 | 47.66814 | 72.87028 | 37012 ft | 502 kts | 96° |
| 2026-05-08 01:24 | 47.66136 | 72.97331 | 37027 ft | 502 kts | 96° |
| 2026-05-08 01:25 | 47.65454 | 73.07562 | 37017 ft | 501 kts | 96° |
| 2026-05-08 01:25 | 47.64759 | 73.17838 | 37011 ft | 501 kts | 96° |
| 2026-05-08 01:26 | 47.64055 | 73.28111 | 37020 ft | 501 kts | 96° |
| 2026-05-08 01:26 | 47.63343 | 73.38367 | 37011 ft | 499 kts | 96° |
| 2026-05-08 01:27 | 47.62628 | 73.48528 | 37015 ft | 499 kts | 96° |
| 2026-05-08 01:27 | 47.61901 | 73.58736 | 37007 ft | 498 kts | 96° |
| 2026-05-08 01:28 | 47.61165 | 73.68929 | 37007 ft | 497 kts | 96° |
| 2026-05-08 01:28 | 47.60420 | 73.79123 | 37011 ft | 498 kts | 97° |
| 2026-05-08 01:29 | 47.59671 | 73.89241 | 37008 ft | 498 kts | 97° |
| 2026-05-08 01:29 | 47.58909 | 73.99429 | 37008 ft | 497 kts | 97° |
| 2026-05-08 01:30 | 47.58138 | 74.09601 | 37008 ft | 497 kts | 97° |
| 2026-05-08 01:30 | 47.57357 | 74.19777 | 37011 ft | 497 kts | 97° |
| 2026-05-08 01:31 | 47.56573 | 74.29884 | 36995 ft | 497 kts | 97° |
| 2026-05-08 01:31 | 47.55776 | 74.40040 | 37007 ft | 496 kts | 97° |
| 2026-05-08 01:32 | 47.54969 | 74.50203 | 37009 ft | 498 kts | 97° |
| 2026-05-08 01:32 | 47.54152 | 74.60375 | 37009 ft | 498 kts | 97° |
| 2026-05-08 01:33 | 47.53331 | 74.70485 | 37008 ft | 498 kts | 97° |
| 2026-05-08 01:33 | 47.52496 | 74.80654 | 37012 ft | 498 kts | 97° |
| 2026-05-08 01:34 | 47.51651 | 74.90822 | 37010 ft | 499 kts | 97° |
| 2026-05-08 01:34 | 47.50796 | 75.01014 | 37009 ft | 499 kts | 97° |
| 2026-05-08 01:35 | 47.49931 | 75.11202 | 37007 ft | 499 kts | 97° |
| 2026-05-08 01:35 | 47.49063 | 75.21322 | 37009 ft | 499 kts | 97° |
| 2026-05-08 01:36 | 47.48181 | 75.31502 | 37007 ft | 499 kts | 97° |
| 2026-05-08 01:36 | 47.47290 | 75.41672 | 37011 ft | 499 kts | 97° |
| 2026-05-08 01:37 | 47.46396 | 75.51772 | 37007 ft | 499 kts | 97° |
| 2026-05-08 01:37 | 47.45488 | 75.61924 | 37010 ft | 499 kts | 98° |
| 2026-05-08 01:38 | 47.44571 | 75.72079 | 37017 ft | 499 kts | 97° |
| 2026-05-08 01:38 | 47.43643 | 75.82243 | 37010 ft | 499 kts | 97° |
| 2026-05-08 01:39 | 47.42707 | 75.92399 | 37011 ft | 499 kts | 98° |
| 2026-05-08 01:39 | 47.41769 | 76.02485 | 37008 ft | 499 kts | 98° |
| 2026-05-08 01:40 | 47.40815 | 76.12633 | 37006 ft | 499 kts | 98° |
| 2026-05-08 01:40 | 47.39851 | 76.22789 | 37010 ft | 499 kts | 98° |
| 2026-05-08 01:41 | 47.38879 | 76.32928 | 37004 ft | 498 kts | 98° |
| 2026-05-08 01:41 | 47.37908 | 76.42966 | 37011 ft | 497 kts | 98° |
| 2026-05-08 01:42 | 47.36923 | 76.53061 | 37009 ft | 497 kts | 98° |
| 2026-05-08 01:42 | 47.35928 | 76.63152 | 37013 ft | 497 kts | 98° |
| 2026-05-08 01:43 | 47.34923 | 76.73248 | 37008 ft | 499 kts | 98° |
| 2026-05-08 01:43 | 47.33915 | 76.83297 | 37013 ft | 499 kts | 98° |
| 2026-05-08 01:44 | 47.32890 | 76.93413 | 37013 ft | 499 kts | 98° |
| 2026-05-08 01:44 | 47.31856 | 77.03527 | 37015 ft | 499 kts | 98° |
| 2026-05-08 01:45 | 47.30997 | 77.13666 | 37018 ft | 499 kts | 94° |
| 2026-05-08 01:45 | 47.30555 | 77.23791 | 37017 ft | 499 kts | 92° |
| 2026-05-08 01:46 | 47.30117 | 77.33990 | 37016 ft | 498 kts | 93° |
| 2026-05-08 01:46 | 47.29602 | 77.44160 | 37020 ft | 497 kts | 94° |
| 2026-05-08 01:47 | 47.29043 | 77.54316 | 37017 ft | 498 kts | 94° |
| 2026-05-08 01:47 | 47.28473 | 77.64425 | 37015 ft | 499 kts | 94° |
| 2026-05-08 01:48 | 47.27598 | 77.79713 | 37015 ft | 499 kts | 94° |
| 2026-05-08 01:48 | 47.27005 | 77.89902 | 37012 ft | 499 kts | 94° |
| 2026-05-08 01:49 | 47.26403 | 78.00092 | 37011 ft | 500 kts | 94° |
| 2026-05-08 01:49 | 47.25795 | 78.10243 | 37013 ft | 501 kts | 94° |
| 2026-05-08 01:50 | 47.25172 | 78.20468 | 37013 ft | 501 kts | 94° |
| 2026-05-08 01:50 | 47.24541 | 78.30682 | 37013 ft | 501 kts | 94° |
| 2026-05-08 01:51 | 47.23900 | 78.40906 | 37013 ft | 502 kts | 94° |
| 2026-05-08 01:51 | 47.23254 | 78.51064 | 37002 ft | 503 kts | 94° |
| 2026-05-08 01:52 | 47.22594 | 78.61303 | 37007 ft | 502 kts | 94° |
| 2026-05-08 01:52 | 47.21926 | 78.71520 | 37010 ft | 501 kts | 94° |
| 2026-05-08 01:53 | 47.21249 | 78.81718 | 37015 ft | 501 kts | 94° |
| 2026-05-08 01:53 | 47.20569 | 78.91841 | 37009 ft | 501 kts | 94° |
| 2026-05-08 01:54 | 47.19876 | 79.02021 | 37010 ft | 501 kts | 94° |
| 2026-05-08 01:54 | 47.19173 | 79.12212 | 37007 ft | 501 kts | 94° |
| 2026-05-08 01:55 | 47.18456 | 79.22388 | 37012 ft | 501 kts | 94° |
| 2026-05-08 01:55 | 47.17716 | 79.32487 | 37012 ft | 499 kts | 94° |
| 2026-05-08 01:56 | 47.16963 | 79.42617 | 37004 ft | 499 kts | 94° |
| 2026-05-08 01:56 | 47.16204 | 79.52747 | 37012 ft | 499 kts | 94° |
| 2026-05-08 01:57 | 47.15439 | 79.62869 | 37007 ft | 499 kts | 95° |
| 2026-05-08 01:57 | 47.14670 | 79.72914 | 37007 ft | 498 kts | 95° |
| 2026-05-08 01:58 | 47.13889 | 79.83009 | 36998 ft | 497 kts | 95° |
| 2026-05-08 01:58 | 47.13109 | 79.93084 | 37011 ft | 496 kts | 94° |
| 2026-05-08 01:59 | 47.12338 | 80.03150 | 37008 ft | 496 kts | 94° |
| 2026-05-08 01:59 | 47.11565 | 80.13147 | 37000 ft | 496 kts | 95° |
| 2026-05-08 02:00 | 47.10777 | 80.23191 | 37000 ft | 495 kts | 95° |
| 2026-05-08 02:00 | 47.09978 | 80.33240 | 37017 ft | 495 kts | 95° |
| 2026-05-08 02:01 | 47.09171 | 80.43281 | 37017 ft | 495 kts | 95° |
| 2026-05-08 02:01 | 47.08356 | 80.53302 | 37008 ft | 495 kts | 95° |
| 2026-05-08 02:02 | 47.07538 | 80.63256 | 37007 ft | 494 kts | 95° |
| 2026-05-08 02:02 | 47.06708 | 80.73247 | 37008 ft | 494 kts | 96° |
| 2026-05-08 02:03 | 47.05869 | 80.83246 | 37011 ft | 494 kts | 96° |
| 2026-05-08 02:03 | 47.05021 | 80.93234 | 37012 ft | 494 kts | 96° |
| 2026-05-08 02:04 | 47.04172 | 81.03151 | 37017 ft | 493 kts | 96° |
| 2026-05-08 02:04 | 47.03313 | 81.13112 | 37014 ft | 492 kts | 96° |
| 2026-05-08 02:05 | 47.02441 | 81.23044 | 37010 ft | 491 kts | 96° |
| 2026-05-08 02:05 | 47.01561 | 81.32977 | 37007 ft | 491 kts | 96° |
| 2026-05-08 02:06 | 47.00680 | 81.42842 | 37015 ft | 491 kts | 96° |
| 2026-05-08 02:06 | 46.99785 | 81.52772 | 37015 ft | 492 kts | 96° |
| 2026-05-08 02:07 | 46.98882 | 81.62687 | 37005 ft | 491 kts | 96° |
| 2026-05-08 02:07 | 46.97969 | 81.72608 | 37017 ft | 492 kts | 96° |
| 2026-05-08 02:08 | 46.97055 | 81.82457 | 37008 ft | 492 kts | 97° |
| 2026-05-08 02:08 | 46.96125 | 81.92381 | 37012 ft | 492 kts | 97° |
| 2026-05-08 02:09 | 46.95188 | 82.02292 | 37017 ft | 492 kts | 97° |
| 2026-05-08 02:09 | 46.94228 | 82.12207 | 37013 ft | 492 kts | 97° |
| 2026-05-08 02:10 | 46.93261 | 82.22116 | 37027 ft | 492 kts | 97° |
| 2026-05-08 02:10 | 46.92293 | 82.31969 | 37029 ft | 492 kts | 97° |
| 2026-05-08 02:11 | 46.91313 | 82.41871 | 37032 ft | 492 kts | 97° |
| 2026-05-08 02:11 | 46.90323 | 82.51776 | 37029 ft | 492 kts | 97° |
| 2026-05-08 02:12 | 46.89324 | 82.61687 | 37031 ft | 492 kts | 98° |
| 2026-05-08 02:12 | 46.88325 | 82.71515 | 37033 ft | 492 kts | 98° |
| 2026-05-08 02:13 | 46.87309 | 82.81418 | 37031 ft | 492 kts | 98° |
| 2026-05-08 02:13 | 46.85395 | 82.90998 | 37110 ft | 494 kts | 117° |
| 2026-05-08 02:14 | 46.81994 | 82.99705 | 37128 ft | 492 kts | 122° |
| 2026-05-08 02:14 | 46.78374 | 83.08086 | 37136 ft | 491 kts | 123° |
| 2026-05-08 02:15 | 46.74708 | 83.16473 | 37129 ft | 490 kts | 123° |
| 2026-05-08 02:15 | 46.71064 | 83.24861 | 37128 ft | 490 kts | 123° |
| 2026-05-08 02:16 | 46.67449 | 83.33202 | 37126 ft | 490 kts | 123° |
| 2026-05-08 02:16 | 46.63752 | 83.41519 | 37129 ft | 489 kts | 126° |
| 2026-05-08 02:17 | 46.59714 | 83.49491 | 37126 ft | 489 kts | 128° |
| 2026-05-08 02:17 | 46.55623 | 83.57379 | 37128 ft | 489 kts | 128° |
| 2026-05-08 02:18 | 46.52254 | 83.63972 | 37126 ft | 489 kts | 127° |
| 2026-05-08 02:18 | 46.47578 | 83.73208 | 37127 ft | 489 kts | 127° |
| 2026-05-08 02:19 | 46.43559 | 83.81147 | 37126 ft | 489 kts | 127° |
| 2026-05-08 02:19 | 46.40209 | 83.87745 | 37116 ft | 489 kts | 127° |
| 2026-05-08 02:20 | 46.36179 | 83.95657 | 37134 ft | 488 kts | 127° |
| 2026-05-08 02:20 | 46.31492 | 84.04828 | 37136 ft | 487 kts | 127° |
| 2026-05-08 02:21 | 46.27467 | 84.12681 | 37142 ft | 486 kts | 127° |
| 2026-05-08 02:21 | 46.24115 | 84.19196 | 37139 ft | 486 kts | 128° |
| 2026-05-08 02:22 | 46.20066 | 84.27002 | 37138 ft | 485 kts | 128° |
| 2026-05-08 02:22 | 46.15355 | 84.36046 | 37131 ft | 485 kts | 128° |
| 2026-05-08 02:23 | 46.11958 | 84.42557 | 37131 ft | 485 kts | 128° |
| 2026-05-08 02:23 | 46.07928 | 84.50266 | 37118 ft | 485 kts | 128° |
| 2026-05-08 02:24 | 46.03860 | 84.58027 | 37107 ft | 486 kts | 128° |
| 2026-05-08 02:24 | 45.99789 | 84.65771 | 37109 ft | 485 kts | 128° |
| 2026-05-08 02:25 | 45.95713 | 84.73505 | 37109 ft | 485 kts | 128° |
| 2026-05-08 02:25 | 45.91633 | 84.81224 | 37099 ft | 485 kts | 128° |
| 2026-05-08 02:26 | 45.87576 | 84.88880 | 37103 ft | 485 kts | 128° |
| 2026-05-08 02:26 | 45.83483 | 84.96582 | 37093 ft | 485 kts | 128° |
| 2026-05-08 02:27 | 45.79389 | 85.04264 | 37090 ft | 485 kts | 128° |
| 2026-05-08 02:27 | 45.75317 | 85.11885 | 37090 ft | 485 kts | 128° |
| 2026-05-08 02:28 | 45.71214 | 85.19544 | 37083 ft | 485 kts | 128° |
| 2026-05-08 02:28 | 45.67113 | 85.27200 | 37069 ft | 485 kts | 128° |
| 2026-05-08 02:29 | 45.63024 | 85.34860 | 37083 ft | 484 kts | 128° |
| 2026-05-08 02:29 | 45.58933 | 85.42509 | 37080 ft | 485 kts | 128° |
| 2026-05-08 02:30 | 45.54858 | 85.50100 | 37083 ft | 485 kts | 128° |
| 2026-05-08 02:30 | 45.50750 | 85.57730 | 37082 ft | 485 kts | 128° |
| 2026-05-08 02:31 | 45.46635 | 85.65349 | 37079 ft | 484 kts | 128° |
| 2026-05-08 02:31 | 45.42527 | 85.72937 | 37082 ft | 483 kts | 128° |
| 2026-05-08 02:32 | 45.38447 | 85.80455 | 37082 ft | 483 kts | 128° |
| 2026-05-08 02:32 | 45.34330 | 85.88019 | 37082 ft | 483 kts | 128° |
| 2026-05-08 02:33 | 45.30213 | 85.95561 | 37078 ft | 483 kts | 128° |
| 2026-05-08 02:33 | 45.26099 | 86.03081 | 37084 ft | 481 kts | 128° |
| 2026-05-08 02:34 | 45.22018 | 86.10519 | 37084 ft | 480 kts | 128° |
| 2026-05-08 02:34 | 45.17908 | 86.17990 | 37082 ft | 481 kts | 128° |
| 2026-05-08 02:35 | 45.13791 | 86.25454 | 37085 ft | 481 kts | 128° |
| 2026-05-08 02:35 | 45.09663 | 86.32919 | 37092 ft | 481 kts | 128° |
| 2026-05-08 02:36 | 45.05563 | 86.40316 | 37086 ft | 481 kts | 128° |
| 2026-05-08 02:36 | 45.01427 | 86.47755 | 37093 ft | 481 kts | 128° |
| 2026-05-08 02:37 | 44.97285 | 86.55189 | 37092 ft | 481 kts | 128° |
| 2026-05-08 02:37 | 44.93135 | 86.62615 | 37092 ft | 482 kts | 128° |
| 2026-05-08 02:38 | 44.88983 | 86.70026 | 37097 ft | 481 kts | 128° |
| 2026-05-08 02:38 | 44.84856 | 86.77374 | 37098 ft | 481 kts | 128° |
| 2026-05-08 02:39 | 44.80694 | 86.84744 | 37098 ft | 481 kts | 128° |
| 2026-05-08 02:39 | 44.76469 | 86.92056 | 37090 ft | 481 kts | 129° |
| 2026-05-08 02:40 | 44.72238 | 86.99342 | 37108 ft | 480 kts | 129° |
| 2026-05-08 02:40 | 44.68052 | 87.06587 | 37107 ft | 481 kts | 128° |
| 2026-05-08 02:41 | 44.63833 | 87.13885 | 37107 ft | 481 kts | 128° |
| 2026-05-08 02:41 | 44.59612 | 87.21169 | 37107 ft | 481 kts | 129° |
| 2026-05-08 02:42 | 44.55384 | 87.28447 | 37112 ft | 481 kts | 129° |
| 2026-05-08 02:42 | 44.51282 | 87.35751 | 37116 ft | 480 kts | 126° |
| 2026-05-08 02:43 | 44.47256 | 87.43235 | 37112 ft | 481 kts | 126° |
| 2026-05-08 02:43 | 44.43217 | 87.50705 | 37113 ft | 481 kts | 126° |
| 2026-05-08 02:44 | 44.39150 | 87.58143 | 37103 ft | 481 kts | 127° |
| 2026-05-08 02:44 | 44.35071 | 87.65557 | 37113 ft | 482 kts | 127° |
| 2026-05-08 02:45 | 44.31025 | 87.72945 | 37113 ft | 482 kts | 126° |
| 2026-05-08 02:45 | 44.27007 | 87.80438 | 37118 ft | 483 kts | 126° |
| 2026-05-08 02:46 | 44.22989 | 87.87938 | 37122 ft | 483 kts | 126° |
| 2026-05-08 02:46 | 44.19756 | 87.96061 | 37130 ft | 479 kts | 107° |
| 2026-05-08 02:47 | 44.18919 | 88.00528 | 37130 ft | 476 kts | 96° |
| 2026-05-08 02:47 | 44.18686 | 88.05048 | 37143 ft | 472 kts | 85° |
| 2026-05-08 02:47 | 44.19616 | 88.14047 | 37142 ft | 470 kts | 75° |
| 2026-05-08 02:48 | 44.20978 | 88.22947 | 37153 ft | 470 kts | 74° |
| 2026-05-08 02:48 | 44.22361 | 88.31851 | 37131 ft | 470 kts | 75° |
| 2026-05-08 02:49 | 44.23700 | 88.40777 | 37131 ft | 470 kts | 75° |
| 2026-05-08 02:49 | 44.25001 | 88.49655 | 37136 ft | 470 kts | 75° |
| 2026-05-08 02:50 | 44.26300 | 88.58597 | 37129 ft | 471 kts | 75° |
| 2026-05-08 02:50 | 44.27595 | 88.67553 | 37120 ft | 471 kts | 75° |
| 2026-05-08 02:51 | 44.28875 | 88.76449 | 37120 ft | 471 kts | 75° |
| 2026-05-08 02:51 | 44.30156 | 88.85406 | 37116 ft | 471 kts | 75° |
| 2026-05-08 02:52 | 44.31431 | 88.94371 | 37112 ft | 471 kts | 75° |
| 2026-05-08 02:52 | 44.32700 | 89.03347 | 37112 ft | 471 kts | 75° |
| 2026-05-08 02:53 | 44.33962 | 89.12330 | 37109 ft | 471 kts | 75° |
| 2026-05-08 02:53 | 44.35208 | 89.21251 | 37109 ft | 471 kts | 75° |
| 2026-05-08 02:54 | 44.36456 | 89.30241 | 37110 ft | 472 kts | 75° |
| 2026-05-08 02:54 | 44.37699 | 89.39245 | 37107 ft | 472 kts | 75° |
| 2026-05-08 02:55 | 44.39544 | 89.52713 | 37107 ft | 472 kts | 75° |
| 2026-05-08 02:56 | 44.40769 | 89.61732 | 37107 ft | 472 kts | 75° |
| 2026-05-08 02:56 | 44.41081 | 89.70939 | 37106 ft | 480 kts | 94° |
| 2026-05-08 02:57 | 44.39561 | 89.80064 | 37109 ft | 483 kts | 103° |
| 2026-05-08 02:57 | 44.37605 | 89.89069 | 37104 ft | 484 kts | 104° |
| 2026-05-08 02:58 | 44.35607 | 89.97995 | 37102 ft | 484 kts | 104° |
| 2026-05-08 02:58 | 44.33614 | 90.06990 | 37110 ft | 485 kts | 104° |
| 2026-05-08 02:59 | 44.31632 | 90.16006 | 37105 ft | 486 kts | 104° |
| 2026-05-08 02:59 | 44.29645 | 90.25031 | 37101 ft | 486 kts | 104° |
| 2026-05-08 03:00 | 44.27665 | 90.33980 | 37111 ft | 486 kts | 104° |
| 2026-05-08 03:00 | 44.25663 | 90.42985 | 37110 ft | 486 kts | 104° |
| 2026-05-08 03:01 | 44.23649 | 90.52008 | 37107 ft | 487 kts | 104° |
| 2026-05-08 03:01 | 44.21628 | 90.61020 | 37104 ft | 487 kts | 105° |
| 2026-05-08 03:02 | 44.19602 | 90.70020 | 37112 ft | 486 kts | 105° |
| 2026-05-08 03:02 | 44.17584 | 90.78944 | 37119 ft | 486 kts | 105° |
| 2026-05-08 03:03 | 44.15545 | 90.87926 | 37116 ft | 487 kts | 105° |
| 2026-05-08 03:03 | 44.13498 | 90.96909 | 37117 ft | 487 kts | 105° |
| 2026-05-08 03:04 | 44.11444 | 91.05893 | 37119 ft | 487 kts | 105° |
| 2026-05-08 03:04 | 44.09400 | 91.14804 | 37138 ft | 487 kts | 105° |
| 2026-05-08 03:05 | 44.07329 | 91.23775 | 37122 ft | 488 kts | 105° |
| 2026-05-08 03:05 | 44.05247 | 91.32764 | 37131 ft | 488 kts | 105° |
| 2026-05-08 03:06 | 44.03161 | 91.41735 | 37135 ft | 488 kts | 105° |
| 2026-05-08 03:06 | 44.01072 | 91.50657 | 37134 ft | 488 kts | 105° |
| 2026-05-08 03:07 | 43.98949 | 91.59605 | 37143 ft | 488 kts | 106° |
| 2026-05-08 03:07 | 43.96815 | 91.68560 | 37153 ft | 489 kts | 106° |
| 2026-05-08 03:08 | 43.94678 | 91.77517 | 37151 ft | 489 kts | 106° |
| 2026-05-08 03:08 | 43.92532 | 91.86477 | 37159 ft | 489 kts | 106° |
| 2026-05-08 03:09 | 43.90395 | 91.95364 | 37150 ft | 489 kts | 106° |
| 2026-05-08 03:09 | 43.88231 | 92.04330 | 37158 ft | 491 kts | 106° |
| 2026-05-08 03:10 | 43.86060 | 92.13287 | 37173 ft | 491 kts | 106° |
| 2026-05-08 03:10 | 43.83879 | 92.22253 | 37159 ft | 491 kts | 106° |
| 2026-05-08 03:11 | 43.81706 | 92.31148 | 37177 ft | 491 kts | 106° |
| 2026-05-08 03:11 | 43.79514 | 92.40089 | 37173 ft | 490 kts | 107° |
| 2026-05-08 03:12 | 43.77319 | 92.49003 | 37154 ft | 489 kts | 107° |
| 2026-05-08 03:12 | 43.75119 | 92.57906 | 37174 ft | 489 kts | 107° |
| 2026-05-08 03:13 | 43.72927 | 92.66741 | 37156 ft | 489 kts | 107° |
| 2026-05-08 03:13 | 43.70713 | 92.75632 | 37185 ft | 489 kts | 107° |
| 2026-05-08 03:14 | 43.68494 | 92.84507 | 37183 ft | 489 kts | 107° |
| 2026-05-08 03:14 | 43.66268 | 92.93378 | 37185 ft | 489 kts | 107° |
| 2026-05-08 03:15 | 43.64061 | 93.02186 | 37182 ft | 489 kts | 106° |
| 2026-05-08 03:15 | 43.61931 | 93.11091 | 37207 ft | 488 kts | 106° |
| 2026-05-08 03:16 | 43.59825 | 93.19992 | 37196 ft | 489 kts | 106° |
| 2026-05-08 03:16 | 43.57697 | 93.28893 | 37209 ft | 488 kts | 106° |
| 2026-05-08 03:17 | 43.55552 | 93.37781 | 37215 ft | 488 kts | 106° |
| 2026-05-08 03:17 | 43.53414 | 93.46589 | 37196 ft | 488 kts | 106° |
| 2026-05-08 03:18 | 43.51256 | 93.55452 | 37203 ft | 488 kts | 106° |
| 2026-05-08 03:18 | 43.49091 | 93.64309 | 37200 ft | 488 kts | 106° |
| 2026-05-08 03:19 | 43.46934 | 93.73102 | 37203 ft | 488 kts | 107° |
| 2026-05-08 03:19 | 43.44755 | 93.81947 | 37213 ft | 488 kts | 106° |
| 2026-05-08 03:20 | 43.42568 | 93.90793 | 37207 ft | 489 kts | 106° |
| 2026-05-08 03:20 | 43.40374 | 93.99636 | 37207 ft | 489 kts | 107° |
| 2026-05-08 03:21 | 43.38168 | 94.08486 | 37206 ft | 489 kts | 107° |
| 2026-05-08 03:21 | 43.35974 | 94.17258 | 37201 ft | 489 kts | 107° |
| 2026-05-08 03:22 | 43.33758 | 94.26083 | 37210 ft | 488 kts | 107° |
| 2026-05-08 03:22 | 43.31541 | 94.34880 | 37201 ft | 487 kts | 107° |
| 2026-05-08 03:23 | 43.29320 | 94.43663 | 37194 ft | 487 kts | 107° |
| 2026-05-08 03:23 | 43.27107 | 94.52379 | 37188 ft | 487 kts | 107° |
| 2026-05-08 03:24 | 43.24872 | 94.61148 | 37190 ft | 487 kts | 107° |
| 2026-05-08 03:24 | 43.22631 | 94.69909 | 37182 ft | 487 kts | 107° |
| 2026-05-08 03:25 | 43.20395 | 94.78619 | 37148 ft | 487 kts | 107° |
| 2026-05-08 03:25 | 43.18138 | 94.87379 | 37147 ft | 488 kts | 107° |
| 2026-05-08 03:26 | 43.15873 | 94.96133 | 37135 ft | 488 kts | 107° |
| 2026-05-08 03:26 | 43.13297 | 95.04725 | 37109 ft | 490 kts | 118° |
| 2026-05-08 03:26 | 43.11381 | 95.08572 | 37107 ft | 490 kts | 129° |
| 2026-05-08 03:27 | 43.08984 | 95.11886 | 37110 ft | 490 kts | 141° |
| 2026-05-08 03:27 | 43.03535 | 95.17356 | 37116 ft | 490 kts | 146° |
| 2026-05-08 03:28 | 42.97873 | 95.22543 | 37094 ft | 490 kts | 147° |
| 2026-05-08 03:28 | 42.92202 | 95.27714 | 37093 ft | 490 kts | 147° |
| 2026-05-08 03:29 | 42.86549 | 95.32921 | 37099 ft | 490 kts | 146° |
| 2026-05-08 03:29 | 42.80944 | 95.38104 | 37089 ft | 490 kts | 146° |
| 2026-05-08 03:30 | 42.72483 | 95.45915 | 37098 ft | 490 kts | 146° |
| 2026-05-08 03:31 | 42.61239 | 95.56246 | 37096 ft | 488 kts | 146° |
| 2026-05-08 03:32 | 42.52799 | 95.63969 | 37095 ft | 488 kts | 146° |
| 2026-05-08 03:32 | 42.47177 | 95.69105 | 37087 ft | 488 kts | 146° |
| 2026-05-08 03:33 | 42.42231 | 95.75315 | 37106 ft | 485 kts | 126° |
| 2026-05-08 03:33 | 42.40429 | 95.79166 | 37112 ft | 483 kts | 115° |
| 2026-05-08 03:33 | 42.39213 | 95.83317 | 37103 ft | 480 kts | 103° |
| 2026-05-08 03:33 | 42.38589 | 95.87725 | 37108 ft | 477 kts | 92° |
| 2026-05-08 03:34 | 42.38346 | 95.92205 | 37104 ft | 477 kts | 90° |
| 2026-05-08 03:34 | 42.38118 | 96.01189 | 37112 ft | 478 kts | 89° |
| 2026-05-08 03:35 | 42.37939 | 96.10187 | 37119 ft | 479 kts | 89° |
| 2026-05-08 03:35 | 42.37711 | 96.19199 | 37107 ft | 480 kts | 89° |
| 2026-05-08 03:36 | 42.37449 | 96.28175 | 37105 ft | 481 kts | 89° |
| 2026-05-08 03:36 | 42.37171 | 96.37204 | 37106 ft | 481 kts | 90° |
| 2026-05-08 03:37 | 42.36886 | 96.46235 | 37104 ft | 481 kts | 90° |
| 2026-05-08 03:37 | 42.36599 | 96.55221 | 37095 ft | 482 kts | 90° |
| 2026-05-08 03:38 | 42.36302 | 96.64278 | 37095 ft | 483 kts | 90° |
| 2026-05-08 03:38 | 42.35997 | 96.73353 | 37091 ft | 483 kts | 90° |
| 2026-05-08 03:39 | 42.35686 | 96.82414 | 37092 ft | 483 kts | 90° |
| 2026-05-08 03:39 | 42.35367 | 96.91478 | 37085 ft | 483 kts | 90° |
| 2026-05-08 03:40 | 42.35043 | 97.00499 | 37077 ft | 484 kts | 90° |
| 2026-05-08 03:40 | 42.34709 | 97.09585 | 37079 ft | 484 kts | 90° |
| 2026-05-08 03:41 | 42.34368 | 97.18663 | 37069 ft | 484 kts | 90° |
| 2026-05-08 03:41 | 42.34020 | 97.27735 | 37071 ft | 484 kts | 90° |
| 2026-05-08 03:42 | 42.33667 | 97.36753 | 37061 ft | 484 kts | 90° |
| 2026-05-08 03:42 | 42.33305 | 97.45834 | 37060 ft | 484 kts | 90° |
| 2026-05-08 03:43 | 42.32936 | 97.54907 | 37063 ft | 484 kts | 90° |
| 2026-05-08 03:43 | 42.32559 | 97.63981 | 37056 ft | 484 kts | 91° |
| 2026-05-08 03:44 | 42.32178 | 97.73002 | 37060 ft | 484 kts | 91° |
| 2026-05-08 03:44 | 42.31786 | 97.82100 | 37052 ft | 485 kts | 91° |
| 2026-05-08 03:45 | 42.31387 | 97.91187 | 37047 ft | 485 kts | 91° |
| 2026-05-08 03:45 | 42.30981 | 98.00275 | 37046 ft | 485 kts | 91° |
| 2026-05-08 03:46 | 42.30570 | 98.09318 | 37041 ft | 486 kts | 91° |
| 2026-05-08 03:46 | 42.30149 | 98.18422 | 37043 ft | 486 kts | 91° |
| 2026-05-08 03:47 | 42.29720 | 98.27526 | 37037 ft | 486 kts | 91° |
| 2026-05-08 03:47 | 42.29282 | 98.36624 | 37049 ft | 486 kts | 92° |
| 2026-05-08 03:48 | 42.28817 | 98.45688 | 37041 ft | 487 kts | 92° |
| 2026-05-08 03:48 | 42.28337 | 98.54814 | 37052 ft | 488 kts | 92° |
| 2026-05-08 03:49 | 42.27853 | 98.63944 | 37036 ft | 487 kts | 92° |
| 2026-05-08 03:49 | 42.27364 | 98.73076 | 37040 ft | 488 kts | 92° |
| 2026-05-08 03:50 | 42.26867 | 98.82227 | 37047 ft | 490 kts | 92° |
| 2026-05-08 03:50 | 42.26365 | 98.91354 | 37036 ft | 491 kts | 92° |
| 2026-05-08 03:51 | 42.25850 | 99.00549 | 37031 ft | 491 kts | 92° |
| 2026-05-08 03:51 | 42.25329 | 99.09735 | 37043 ft | 491 kts | 92° |
| 2026-05-08 03:52 | 42.24799 | 99.18937 | 37019 ft | 493 kts | 92° |
| 2026-05-08 03:52 | 42.24265 | 99.28104 | 37017 ft | 493 kts | 92° |
| 2026-05-08 03:53 | 42.23719 | 99.37329 | 37012 ft | 493 kts | 92° |
| 2026-05-08 03:53 | 42.23165 | 99.46554 | 37013 ft | 493 kts | 92° |
| 2026-05-08 03:54 | 42.22604 | 99.55791 | 37000 ft | 494 kts | 92° |
| 2026-05-08 03:54 | 42.22039 | 99.64965 | 37007 ft | 494 kts | 92° |
| 2026-05-08 03:55 | 42.21462 | 99.74215 | 37000 ft | 494 kts | 93° |
| 2026-05-08 03:55 | 42.20878 | 99.83453 | 37007 ft | 494 kts | 93° |
| 2026-05-08 03:56 | 42.20286 | 99.92699 | 36999 ft | 496 kts | 93° |
| 2026-05-08 03:56 | 42.19689 | 100.01903 | 36992 ft | 496 kts | 93° |
| 2026-05-08 03:57 | 42.19081 | 100.11164 | 36993 ft | 496 kts | 93° |
| 2026-05-08 03:57 | 42.18465 | 100.20423 | 36996 ft | 496 kts | 93° |
| 2026-05-08 03:58 | 42.17841 | 100.29699 | 36985 ft | 497 kts | 94° |
| 2026-05-08 03:58 | 42.17213 | 100.38925 | 36990 ft | 498 kts | 94° |
| 2026-05-08 03:59 | 42.16572 | 100.48214 | 36988 ft | 498 kts | 94° |
| 2026-05-08 03:59 | 42.15924 | 100.57509 | 36997 ft | 498 kts | 94° |
| 2026-05-08 04:00 | 42.15269 | 100.66799 | 36993 ft | 499 kts | 94° |
| 2026-05-08 04:00 | 42.14607 | 100.76064 | 36997 ft | 500 kts | 94° |
| 2026-05-08 04:01 | 42.13934 | 100.85391 | 36994 ft | 500 kts | 94° |
| 2026-05-08 04:01 | 42.13252 | 100.94718 | 36997 ft | 500 kts | 94° |
| 2026-05-08 04:02 | 42.12381 | 101.04005 | 36997 ft | 501 kts | 103° |
| 2026-05-08 04:02 | 42.10335 | 101.12972 | 36997 ft | 501 kts | 108° |
| 2026-05-08 04:03 | 42.08041 | 101.21763 | 36997 ft | 501 kts | 109° |
| 2026-05-08 04:03 | 42.04512 | 101.35008 | 36993 ft | 502 kts | 109° |
| 2026-05-08 04:04 | 42.02165 | 101.43859 | 36999 ft | 503 kts | 109° |
| 2026-05-08 04:04 | 41.99831 | 101.52667 | 36999 ft | 503 kts | 109° |
| 2026-05-08 04:05 | 41.97475 | 101.61526 | 37001 ft | 503 kts | 109° |
| 2026-05-08 04:05 | 41.95111 | 101.70384 | 37003 ft | 503 kts | 110° |
| 2026-05-08 04:06 | 41.92736 | 101.79247 | 37006 ft | 505 kts | 110° |
| 2026-05-08 04:06 | 41.90368 | 101.88054 | 37005 ft | 505 kts | 110° |
| 2026-05-08 04:07 | 41.87976 | 101.96916 | 37006 ft | 505 kts | 110° |
| 2026-05-08 04:07 | 41.85579 | 102.05768 | 37012 ft | 505 kts | 110° |
| 2026-05-08 04:08 | 41.83170 | 102.14629 | 37008 ft | 506 kts | 110° |
| 2026-05-08 04:08 | 41.80767 | 102.23436 | 37011 ft | 506 kts | 110° |
| 2026-05-08 04:09 | 41.78342 | 102.32295 | 37006 ft | 506 kts | 110° |
| 2026-05-08 04:09 | 41.75910 | 102.41147 | 37009 ft | 506 kts | 110° |
| 2026-05-08 04:10 | 41.73470 | 102.49996 | 37002 ft | 507 kts | 110° |
| 2026-05-08 04:10 | 41.71024 | 102.58837 | 36990 ft | 506 kts | 110° |
| 2026-05-08 04:11 | 41.68590 | 102.67602 | 37044 ft | 505 kts | 110° |
| 2026-05-08 04:11 | 41.67366 | 102.72003 | 37215 ft | 505 kts | 110° |
| 2026-05-08 04:11 | 41.66146 | 102.76398 | 37403 ft | 504 kts | 111° |
| 2026-05-08 04:12 | 41.64919 | 102.80790 | 37583 ft | 504 kts | 111° |
| 2026-05-08 04:12 | 41.63693 | 102.85169 | 37779 ft | 503 kts | 111° |
| 2026-05-08 04:12 | 41.62465 | 102.89543 | 37932 ft | 503 kts | 111° |
| 2026-05-08 04:12 | 41.61236 | 102.93917 | 38076 ft | 503 kts | 111° |
| 2026-05-08 04:13 | 41.60007 | 102.98286 | 38241 ft | 502 kts | 111° |
| 2026-05-08 04:13 | 41.58797 | 103.02594 | 38368 ft | 502 kts | 111° |
| 2026-05-08 04:13 | 41.57566 | 103.06959 | 38532 ft | 502 kts | 111° |
| 2026-05-08 04:13 | 41.56333 | 103.11316 | 38637 ft | 502 kts | 111° |
| 2026-05-08 04:14 | 41.53858 | 103.20026 | 38836 ft | 502 kts | 111° |
| 2026-05-08 04:14 | 41.51372 | 103.28758 | 38893 ft | 506 kts | 111° |
| 2026-05-08 04:15 | 41.48884 | 103.37471 | 38893 ft | 505 kts | 111° |
| 2026-05-08 04:15 | 41.46379 | 103.46218 | 38893 ft | 504 kts | 111° |
| 2026-05-08 04:16 | 41.43870 | 103.54945 | 38893 ft | 504 kts | 111° |
| 2026-05-08 04:16 | 41.41351 | 103.63682 | 38892 ft | 505 kts | 111° |
| 2026-05-08 04:17 | 41.38843 | 103.72346 | 38891 ft | 505 kts | 111° |
| 2026-05-08 04:17 | 41.36312 | 103.81062 | 38883 ft | 505 kts | 111° |
| 2026-05-08 04:18 | 41.33771 | 103.89783 | 38896 ft | 506 kts | 111° |
| 2026-05-08 04:18 | 41.31214 | 103.98529 | 38898 ft | 508 kts | 111° |
| 2026-05-08 04:19 | 41.28649 | 104.07276 | 38895 ft | 508 kts | 111° |
| 2026-05-08 04:19 | 41.26092 | 104.15962 | 38894 ft | 508 kts | 111° |
| 2026-05-08 04:20 | 41.23514 | 104.24696 | 38900 ft | 508 kts | 111° |
| 2026-05-08 04:20 | 41.20924 | 104.33435 | 38909 ft | 508 kts | 111° |
| 2026-05-08 04:21 | 41.18330 | 104.42163 | 38911 ft | 509 kts | 111° |
| 2026-05-08 04:21 | 41.15743 | 104.50836 | 38917 ft | 509 kts | 111° |
| 2026-05-08 04:22 | 41.13133 | 104.59556 | 38917 ft | 508 kts | 112° |
| 2026-05-08 04:22 | 41.10517 | 104.68269 | 38919 ft | 508 kts | 112° |
| 2026-05-08 04:23 | 41.07803 | 104.76928 | 38919 ft | 508 kts | 114° |
| 2026-05-08 04:23 | 41.04896 | 104.85396 | 38928 ft | 508 kts | 115° |
| 2026-05-08 04:24 | 41.01959 | 104.93900 | 38929 ft | 508 kts | 115° |
| 2026-05-08 04:24 | 40.99042 | 105.02438 | 38929 ft | 509 kts | 115° |
| 2026-05-08 04:25 | 40.96132 | 105.10988 | 38936 ft | 510 kts | 115° |
| 2026-05-08 04:25 | 40.93216 | 105.19543 | 38944 ft | 510 kts | 115° |
| 2026-05-08 04:26 | 40.90313 | 105.28030 | 38943 ft | 510 kts | 115° |
| 2026-05-08 04:26 | 40.87380 | 105.36571 | 38952 ft | 510 kts | 115° |
| 2026-05-08 04:27 | 40.84439 | 105.45111 | 38949 ft | 511 kts | 115° |
| 2026-05-08 04:27 | 40.81490 | 105.53647 | 38955 ft | 511 kts | 115° |
| 2026-05-08 04:28 | 40.78557 | 105.62113 | 38960 ft | 511 kts | 115° |
| 2026-05-08 04:28 | 40.75597 | 105.70632 | 38969 ft | 511 kts | 115° |
| 2026-05-08 04:29 | 40.72629 | 105.79146 | 38971 ft | 511 kts | 115° |
| 2026-05-08 04:29 | 40.69656 | 105.87649 | 38972 ft | 511 kts | 115° |
| 2026-05-08 04:30 | 40.66697 | 105.96089 | 38978 ft | 511 kts | 116° |
| 2026-05-08 04:30 | 40.63710 | 106.04581 | 38976 ft | 512 kts | 116° |
| 2026-05-08 04:31 | 40.60705 | 106.13099 | 38978 ft | 514 kts | 116° |
| 2026-05-08 04:31 | 40.57691 | 106.21621 | 38977 ft | 514 kts | 116° |
| 2026-05-08 04:32 | 40.54687 | 106.30086 | 38975 ft | 514 kts | 116° |
| 2026-05-08 04:32 | 40.51659 | 106.38594 | 38975 ft | 514 kts | 116° |
| 2026-05-08 04:33 | 40.48618 | 106.47113 | 38977 ft | 515 kts | 116° |
| 2026-05-08 04:33 | 40.45571 | 106.55625 | 38974 ft | 515 kts | 116° |
| 2026-05-08 04:34 | 40.42540 | 106.64066 | 38976 ft | 515 kts | 116° |
| 2026-05-08 04:34 | 40.39479 | 106.72569 | 38976 ft | 515 kts | 116° |
| 2026-05-08 04:35 | 40.36410 | 106.81064 | 38982 ft | 516 kts | 117° |
| 2026-05-08 04:35 | 40.33332 | 106.89569 | 38982 ft | 516 kts | 116° |
| 2026-05-08 04:36 | 40.31336 | 106.98507 | 38984 ft | 516 kts | 94° |
| 2026-05-08 04:36 | 40.31372 | 107.07871 | 38982 ft | 515 kts | 85° |
| 2026-05-08 04:37 | 40.31869 | 107.17249 | 38980 ft | 517 kts | 83° |
| 2026-05-08 04:37 | 40.32409 | 107.26664 | 38977 ft | 518 kts | 84° |
| 2026-05-08 04:38 | 40.32905 | 107.36077 | 38974 ft | 518 kts | 84° |
| 2026-05-08 04:38 | 40.33365 | 107.45434 | 38975 ft | 518 kts | 84° |
| 2026-05-08 04:39 | 40.33815 | 107.54855 | 38971 ft | 518 kts | 84° |
| 2026-05-08 04:39 | 40.34258 | 107.64267 | 38969 ft | 517 kts | 84° |
| 2026-05-08 04:40 | 40.34695 | 107.73680 | 38969 ft | 517 kts | 84° |
| 2026-05-08 04:40 | 40.35122 | 107.83044 | 38966 ft | 519 kts | 84° |
| 2026-05-08 04:41 | 40.35545 | 107.92498 | 38966 ft | 520 kts | 84° |
| 2026-05-08 04:41 | 40.35962 | 108.01961 | 38964 ft | 519 kts | 84° |
| 2026-05-08 04:42 | 40.36350 | 108.11359 | 38963 ft | 515 kts | 85° |
| 2026-05-08 04:42 | 40.36713 | 108.20718 | 38963 ft | 514 kts | 85° |
| 2026-05-08 04:43 | 40.37069 | 108.30028 | 38961 ft | 514 kts | 85° |
| 2026-05-08 04:43 | 40.37424 | 108.39398 | 38961 ft | 515 kts | 85° |
| 2026-05-08 04:44 | 40.37773 | 108.48766 | 38957 ft | 515 kts | 85° |
| 2026-05-08 04:44 | 40.38116 | 108.58161 | 38958 ft | 516 kts | 85° |
| 2026-05-08 04:45 | 40.38448 | 108.67498 | 38958 ft | 516 kts | 85° |
| 2026-05-08 04:45 | 40.38776 | 108.76905 | 38963 ft | 516 kts | 85° |
| 2026-05-08 04:46 | 40.39095 | 108.86309 | 38959 ft | 516 kts | 85° |
| 2026-05-08 04:46 | 40.39407 | 108.95726 | 38959 ft | 517 kts | 85° |
| 2026-05-08 04:47 | 40.39710 | 109.05077 | 38971 ft | 516 kts | 85° |
| 2026-05-08 04:47 | 40.40005 | 109.14442 | 38968 ft | 513 kts | 85° |
| 2026-05-08 04:48 | 40.40293 | 109.23815 | 38965 ft | 514 kts | 85° |
| 2026-05-08 04:48 | 40.40573 | 109.33178 | 38977 ft | 514 kts | 85° |
| 2026-05-08 04:49 | 40.40846 | 109.42560 | 38980 ft | 514 kts | 85° |
| 2026-05-08 04:49 | 40.41109 | 109.51875 | 38980 ft | 515 kts | 85° |
| 2026-05-08 04:50 | 40.41369 | 109.61269 | 38980 ft | 516 kts | 85° |
| 2026-05-08 04:50 | 40.41619 | 109.70677 | 38987 ft | 516 kts | 85° |
| 2026-05-08 04:51 | 40.41862 | 109.80084 | 38998 ft | 516 kts | 86° |
| 2026-05-08 04:51 | 40.42097 | 109.89445 | 38995 ft | 517 kts | 85° |
| 2026-05-08 04:52 | 40.42325 | 109.98894 | 38999 ft | 518 kts | 86° |
| 2026-05-08 04:52 | 40.42352 | 110.08354 | 39007 ft | 518 kts | 89° |
| 2026-05-08 04:53 | 40.42243 | 110.17776 | 39006 ft | 515 kts | 89° |
| 2026-05-08 04:53 | 40.42150 | 110.27179 | 39012 ft | 515 kts | 88° |
| 2026-05-08 04:54 | 40.42077 | 110.36519 | 39015 ft | 515 kts | 88° |
| 2026-05-08 04:54 | 40.42007 | 110.45918 | 39014 ft | 515 kts | 88° |
| 2026-05-08 04:55 | 40.41930 | 110.55321 | 39021 ft | 516 kts | 88° |
| 2026-05-08 04:55 | 40.41844 | 110.64738 | 39024 ft | 516 kts | 88° |
| 2026-05-08 04:56 | 40.41751 | 110.74085 | 39024 ft | 516 kts | 88° |
| 2026-05-08 04:56 | 40.41649 | 110.83499 | 39024 ft | 516 kts | 89° |
| 2026-05-08 04:57 | 40.41540 | 110.92908 | 39020 ft | 516 kts | 89° |
| 2026-05-08 04:57 | 40.41423 | 111.02318 | 39025 ft | 516 kts | 89° |
| 2026-05-08 04:58 | 40.41299 | 111.11672 | 39027 ft | 516 kts | 89° |
| 2026-05-08 04:58 | 40.41167 | 111.21083 | 39027 ft | 516 kts | 89° |
| 2026-05-08 04:59 | 40.41027 | 111.30484 | 39032 ft | 515 kts | 89° |
| 2026-05-08 04:59 | 40.40881 | 111.39876 | 39033 ft | 515 kts | 89° |
| 2026-05-08 05:00 | 40.40724 | 111.49201 | 39042 ft | 515 kts | 89° |
| 2026-05-08 05:00 | 40.40559 | 111.58594 | 39048 ft | 515 kts | 89° |
| 2026-05-08 05:01 | 40.40387 | 111.67986 | 39042 ft | 515 kts | 89° |
| 2026-05-08 05:01 | 40.40208 | 111.77368 | 39042 ft | 515 kts | 89° |
| 2026-05-08 05:02 | 40.40023 | 111.86694 | 39055 ft | 515 kts | 89° |
| 2026-05-08 05:02 | 40.38749 | 111.95886 | 39063 ft | 515 kts | 115° |
| 2026-05-08 05:03 | 40.36922 | 111.99891 | 39060 ft | 511 kts | 131° |
| 2026-05-08 05:03 | 40.34419 | 112.03129 | 39061 ft | 503 kts | 148° |
| 2026-05-08 05:03 | 40.31431 | 112.05384 | 39062 ft | 492 kts | 164° |
| 2026-05-08 05:03 | 40.28177 | 112.06522 | 39070 ft | 479 kts | 180° |
| 2026-05-08 05:04 | 40.24907 | 112.06492 | 39067 ft | 464 kts | 196° |
| 2026-05-08 05:04 | 40.21869 | 112.05329 | 39055 ft | 448 kts | 212° |
| 2026-05-08 05:04 | 40.16519 | 112.01439 | 39067 ft | 451 kts | 208° |
| 2026-05-08 05:05 | 40.13464 | 112.00331 | 39067 ft | 464 kts | 193° |
| 2026-05-08 05:05 | 40.10198 | 112.00338 | 39072 ft | 478 kts | 176° |
| 2026-05-08 05:05 | 40.06963 | 112.01548 | 39072 ft | 491 kts | 160° |
| 2026-05-08 05:05 | 40.03895 | 112.03563 | 39057 ft | 497 kts | 155° |
| 2026-05-08 05:06 | 39.98833 | 112.07138 | 39076 ft | 496 kts | 162° |
| 2026-05-08 05:06 | 39.91216 | 112.09968 | 39090 ft | 487 kts | 174° |
| 2026-05-08 05:07 | 39.84581 | 112.11665 | 39087 ft | 486 kts | 176° |
| 2026-05-08 05:07 | 39.79055 | 112.12962 | 39080 ft | 486 kts | 176° |
| 2026-05-08 05:08 | 39.72394 | 112.14533 | 39096 ft | 487 kts | 176° |
| 2026-05-08 05:08 | 39.65736 | 112.16132 | 39100 ft | 487 kts | 176° |
| 2026-05-08 05:09 | 39.57988 | 112.18006 | 39085 ft | 487 kts | 177° |
| 2026-05-08 05:09 | 39.52446 | 112.19343 | 39101 ft | 488 kts | 177° |
| 2026-05-08 05:10 | 39.42443 | 112.21784 | 39094 ft | 488 kts | 176° |
| 2026-05-08 05:11 | 39.35767 | 112.23431 | 39087 ft | 488 kts | 177° |
| 2026-05-08 05:11 | 39.29077 | 112.25076 | 39098 ft | 489 kts | 177° |
| 2026-05-08 05:12 | 39.21306 | 112.26979 | 39104 ft | 489 kts | 177° |
| 2026-05-08 05:12 | 39.15753 | 112.28337 | 39105 ft | 489 kts | 177° |
| 2026-05-08 05:13 | 39.09059 | 112.29971 | 39111 ft | 490 kts | 178° |
| 2026-05-08 05:13 | 39.02358 | 112.31603 | 39114 ft | 490 kts | 178° |
| 2026-05-08 05:14 | 38.95660 | 112.33232 | 39107 ft | 490 kts | 178° |
| 2026-05-08 05:14 | 38.88950 | 112.34859 | 39107 ft | 491 kts | 178° |
| 2026-05-08 05:15 | 38.82283 | 112.36473 | 39110 ft | 491 kts | 178° |
| 2026-05-08 05:15 | 38.75582 | 112.38093 | 39109 ft | 490 kts | 178° |
| 2026-05-08 05:16 | 38.68885 | 112.39701 | 39097 ft | 489 kts | 178° |
| 2026-05-08 05:16 | 38.62192 | 112.41312 | 39106 ft | 489 kts | 178° |
| 2026-05-08 05:17 | 38.55550 | 112.42912 | 39106 ft | 489 kts | 178° |
| 2026-05-08 05:17 | 38.48867 | 112.44517 | 39106 ft | 489 kts | 178° |
| 2026-05-08 05:18 | 38.42179 | 112.46125 | 39097 ft | 489 kts | 178° |
| 2026-05-08 05:18 | 38.35481 | 112.47707 | 39099 ft | 490 kts | 179° |
| 2026-05-08 05:19 | 38.28817 | 112.49272 | 39100 ft | 490 kts | 179° |
| 2026-05-08 05:19 | 38.22110 | 112.50850 | 39096 ft | 490 kts | 179° |
| 2026-05-08 05:20 | 38.15420 | 112.52424 | 39105 ft | 488 kts | 179° |
| 2026-05-08 05:20 | 38.08744 | 112.53987 | 39109 ft | 488 kts | 179° |
| 2026-05-08 05:21 | 38.02111 | 112.55541 | 39087 ft | 488 kts | 179° |
| 2026-05-08 05:21 | 37.95439 | 112.57103 | 39121 ft | 487 kts | 179° |
| 2026-05-08 05:22 | 37.88769 | 112.58661 | 39132 ft | 487 kts | 179° |
| 2026-05-08 05:22 | 37.82102 | 112.60235 | 39130 ft | 487 kts | 179° |
| 2026-05-08 05:23 | 37.75484 | 112.61811 | 39124 ft | 487 kts | 179° |
| 2026-05-08 05:23 | 37.68852 | 112.63714 | 39120 ft | 490 kts | 174° |
| 2026-05-08 05:24 | 37.62291 | 112.66033 | 39137 ft | 490 kts | 173° |
| 2026-05-08 05:24 | 37.55726 | 112.68347 | 39123 ft | 489 kts | 174° |
| 2026-05-08 05:25 | 37.49203 | 112.70558 | 39133 ft | 488 kts | 174° |
| 2026-05-08 05:25 | 37.42637 | 112.72745 | 39140 ft | 488 kts | 175° |
| 2026-05-08 05:26 | 37.36071 | 112.74922 | 39145 ft | 488 kts | 175° |
| 2026-05-08 05:26 | 37.29508 | 112.77100 | 39134 ft | 488 kts | 175° |
| 2026-05-08 05:27 | 37.22986 | 112.79264 | 39149 ft | 488 kts | 175° |
| 2026-05-08 05:27 | 37.16420 | 112.81438 | 39151 ft | 488 kts | 175° |
| 2026-05-08 05:28 | 37.09858 | 112.83606 | 39154 ft | 488 kts | 175° |
| 2026-05-08 05:28 | 37.03299 | 112.85776 | 39155 ft | 487 kts | 175° |
| 2026-05-08 05:29 | 36.96798 | 112.87928 | 39159 ft | 486 kts | 175° |
| 2026-05-08 05:29 | 36.90261 | 112.90078 | 39162 ft | 486 kts | 175° |
| 2026-05-08 05:30 | 36.83720 | 112.92228 | 39141 ft | 486 kts | 175° |
| 2026-05-08 05:30 | 36.77187 | 112.94375 | 39159 ft | 484 kts | 175° |
| 2026-05-08 05:31 | 36.70719 | 112.96497 | 39168 ft | 484 kts | 175° |
| 2026-05-08 05:31 | 36.64216 | 112.98625 | 39167 ft | 483 kts | 175° |
| 2026-05-08 05:32 | 36.57711 | 113.00751 | 39166 ft | 483 kts | 175° |
| 2026-05-08 05:32 | 36.51208 | 113.02873 | 39175 ft | 483 kts | 175° |
| 2026-05-08 05:33 | 36.44745 | 113.04977 | 39172 ft | 483 kts | 175° |
| 2026-05-08 05:33 | 36.38237 | 113.07093 | 39176 ft | 483 kts | 175° |
| 2026-05-08 05:34 | 36.31739 | 113.09202 | 39170 ft | 483 kts | 175° |
| 2026-05-08 05:34 | 36.25237 | 113.11323 | 39179 ft | 484 kts | 173° |
| 2026-05-08 05:35 | 36.18851 | 113.14003 | 39183 ft | 489 kts | 169° |
| 2026-05-08 05:35 | 36.12449 | 113.16872 | 39191 ft | 490 kts | 169° |
| 2026-05-08 05:36 | 36.06055 | 113.19764 | 39190 ft | 489 kts | 169° |
| 2026-05-08 05:36 | 35.99672 | 113.22638 | 39197 ft | 487 kts | 169° |
| 2026-05-08 05:37 | 35.93298 | 113.25491 | 39203 ft | 487 kts | 169° |
| 2026-05-08 05:37 | 35.86968 | 113.28315 | 39205 ft | 487 kts | 169° |
| 2026-05-08 05:38 | 35.80600 | 113.31159 | 39202 ft | 486 kts | 169° |
| 2026-05-08 05:38 | 35.74244 | 113.34003 | 39208 ft | 485 kts | 169° |
| 2026-05-08 05:39 | 35.67899 | 113.36838 | 39206 ft | 485 kts | 169° |
| 2026-05-08 05:39 | 35.61596 | 113.39647 | 39204 ft | 485 kts | 169° |
| 2026-05-08 05:40 | 35.55257 | 113.42473 | 39196 ft | 485 kts | 168° |
| 2026-05-08 05:40 | 35.48905 | 113.45276 | 39211 ft | 485 kts | 169° |
| 2026-05-08 05:41 | 35.42554 | 113.48083 | 39192 ft | 486 kts | 168° |
| 2026-05-08 05:41 | 35.36241 | 113.50894 | 39198 ft | 486 kts | 168° |
| 2026-05-08 05:42 | 35.29893 | 113.53719 | 39195 ft | 486 kts | 168° |
| 2026-05-08 05:42 | 35.23538 | 113.56540 | 39198 ft | 486 kts | 168° |
| 2026-05-08 05:43 | 35.17195 | 113.59352 | 39199 ft | 486 kts | 168° |
| 2026-05-08 05:43 | 35.10877 | 113.62148 | 39198 ft | 486 kts | 168° |
| 2026-05-08 05:44 | 35.04525 | 113.64953 | 39192 ft | 486 kts | 168° |
| 2026-05-08 05:44 | 34.98175 | 113.67753 | 39199 ft | 485 kts | 168° |
| 2026-05-08 05:45 | 34.91825 | 113.70549 | 39201 ft | 485 kts | 168° |
| 2026-05-08 05:45 | 34.85519 | 113.73321 | 39202 ft | 485 kts | 168° |
| 2026-05-08 05:46 | 34.79107 | 113.75651 | 39201 ft | 478 kts | 174° |
| 2026-05-08 05:46 | 34.72662 | 113.77624 | 39210 ft | 477 kts | 175° |
| 2026-05-08 05:47 | 34.66220 | 113.79645 | 39210 ft | 478 kts | 174° |
| 2026-05-08 05:47 | 34.59834 | 113.81726 | 39211 ft | 479 kts | 174° |
| 2026-05-08 05:48 | 34.53404 | 113.83850 | 39207 ft | 479 kts | 174° |
| 2026-05-08 05:48 | 34.46987 | 113.85952 | 39211 ft | 477 kts | 174° |
| 2026-05-08 05:49 | 34.40570 | 113.87969 | 39219 ft | 476 kts | 175° |
| 2026-05-08 05:49 | 34.34151 | 113.89975 | 39220 ft | 476 kts | 174° |
| 2026-05-08 05:50 | 34.27780 | 113.91976 | 39218 ft | 477 kts | 175° |
| 2026-05-08 05:50 | 34.21359 | 113.93997 | 39219 ft | 477 kts | 175° |
| 2026-05-08 05:51 | 34.14926 | 113.96020 | 39223 ft | 477 kts | 175° |
| 2026-05-08 05:51 | 34.08504 | 113.98038 | 39222 ft | 477 kts | 175° |
| 2026-05-08 05:52 | 34.02119 | 114.00039 | 39222 ft | 477 kts | 175° |
| 2026-05-08 05:52 | 33.95691 | 114.02051 | 39221 ft | 477 kts | 175° |
| 2026-05-08 05:53 | 33.89267 | 114.04058 | 39223 ft | 477 kts | 175° |
| 2026-05-08 05:53 | 33.82845 | 114.06061 | 39221 ft | 477 kts | 175° |
| 2026-05-08 05:54 | 33.76457 | 114.08050 | 39221 ft | 478 kts | 175° |
| 2026-05-08 05:54 | 33.70018 | 114.10052 | 39220 ft | 478 kts | 175° |
| 2026-05-08 05:55 | 33.63574 | 114.12054 | 39216 ft | 478 kts | 175° |
| 2026-05-08 05:55 | 33.57132 | 114.14052 | 39211 ft | 478 kts | 175° |
| 2026-05-08 05:56 | 33.50700 | 114.16044 | 39214 ft | 478 kts | 176° |
| 2026-05-08 05:56 | 33.44301 | 114.18161 | 39221 ft | 487 kts | 169° |
| 2026-05-08 05:56 | 33.41188 | 114.19868 | 39218 ft | 500 kts | 159° |
| 2026-05-08 05:57 | 33.38299 | 114.22282 | 39219 ft | 515 kts | 146° |
| 2026-05-08 05:57 | 33.35800 | 114.25419 | 39219 ft | 528 kts | 133° |
| 2026-05-08 05:57 | 33.33858 | 114.29193 | 39215 ft | 539 kts | 118° |
| 2026-05-08 05:58 | 33.31035 | 114.37554 | 39214 ft | 545 kts | 113° |
| 2026-05-08 05:58 | 33.28467 | 114.46051 | 39215 ft | 548 kts | 113° |
| 2026-05-08 05:59 | 33.25879 | 114.54617 | 39214 ft | 549 kts | 113° |
| 2026-05-08 05:59 | 33.23245 | 114.63164 | 39215 ft | 548 kts | 114° |
| 2026-05-08 06:00 | 33.20583 | 114.71694 | 39212 ft | 548 kts | 114° |
| 2026-05-08 06:00 | 33.17907 | 114.80225 | 39211 ft | 548 kts | 114° |
| 2026-05-08 06:01 | 33.15230 | 114.88690 | 39209 ft | 548 kts | 114° |
| 2026-05-08 06:01 | 33.12533 | 114.97204 | 39203 ft | 549 kts | 114° |
| 2026-05-08 06:02 | 33.09826 | 115.05734 | 39203 ft | 551 kts | 114° |
| 2026-05-08 06:02 | 33.07103 | 115.14297 | 39205 ft | 553 kts | 114° |
| 2026-05-08 06:03 | 33.04392 | 115.22801 | 39203 ft | 553 kts | 114° |
| 2026-05-08 06:03 | 33.01656 | 115.31362 | 39202 ft | 553 kts | 114° |
| 2026-05-08 06:04 | 32.98910 | 115.39925 | 39204 ft | 553 kts | 114° |
| 2026-05-08 06:04 | 32.96169 | 115.48497 | 39205 ft | 554 kts | 114° |
| 2026-05-08 06:05 | 32.93494 | 115.57027 | 39198 ft | 554 kts | 114° |
| 2026-05-08 06:05 | 32.90799 | 115.65626 | 39197 ft | 554 kts | 114° |
| 2026-05-08 06:06 | 32.87647 | 115.73904 | 39194 ft | 544 kts | 129° |
| 2026-05-08 06:06 | 32.83087 | 115.80986 | 39198 ft | 537 kts | 136° |
| 2026-05-08 06:07 | 32.78291 | 115.87774 | 39197 ft | 536 kts | 137° |
| 2026-05-08 06:07 | 32.73496 | 115.94471 | 39210 ft | 536 kts | 137° |
| 2026-05-08 06:08 | 32.68681 | 116.01233 | 39203 ft | 536 kts | 137° |
| 2026-05-08 06:08 | 32.63868 | 116.08014 | 39173 ft | 537 kts | 137° |
| 2026-05-08 06:09 | 32.59054 | 116.14792 | 39194 ft | 538 kts | 137° |
| 2026-05-08 06:09 | 32.54272 | 116.21553 | 39196 ft | 539 kts | 136° |
| 2026-05-08 06:10 | 32.49532 | 116.28459 | 39194 ft | 540 kts | 135° |
| 2026-05-08 06:10 | 32.44804 | 116.35377 | 39195 ft | 541 kts | 135° |
| 2026-05-08 06:11 | 32.40057 | 116.42281 | 39192 ft | 540 kts | 136° |
| 2026-05-08 06:11 | 32.35332 | 116.49122 | 39193 ft | 540 kts | 136° |
| 2026-05-08 06:12 | 32.30571 | 116.55995 | 39191 ft | 540 kts | 136° |
| 2026-05-08 06:12 | 32.25804 | 116.62866 | 39187 ft | 542 kts | 136° |
| 2026-05-08 06:13 | 32.21020 | 116.69747 | 39191 ft | 543 kts | 136° |
| 2026-05-08 06:13 | 32.16209 | 116.76623 | 39187 ft | 542 kts | 137° |
| 2026-05-08 06:14 | 32.11362 | 116.83355 | 39184 ft | 542 kts | 137° |
| 2026-05-08 06:14 | 32.06467 | 116.90110 | 39183 ft | 542 kts | 137° |
| 2026-05-08 06:15 | 32.01574 | 116.96876 | 39184 ft | 542 kts | 137° |
| 2026-05-08 06:15 | 31.96687 | 117.03643 | 39184 ft | 543 kts | 137° |
| 2026-05-08 06:16 | 31.91842 | 117.10372 | 39170 ft | 543 kts | 137° |
| 2026-05-08 06:16 | 31.86950 | 117.17157 | 39186 ft | 544 kts | 137° |
| 2026-05-08 06:17 | 31.79809 | 117.27561 | 39187 ft | 553 kts | 125° |
| 2026-05-08 06:17 | 31.78123 | 117.31655 | 39185 ft | 560 kts | 111° |
| 2026-05-08 06:17 | 31.77180 | 117.36095 | 39187 ft | 562 kts | 98° |
| 2026-05-08 06:18 | 31.76347 | 117.45185 | 39188 ft | 565 kts | 94° |
| 2026-05-08 06:18 | 31.75790 | 117.54402 | 39186 ft | 566 kts | 93° |
| 2026-05-08 06:19 | 31.75216 | 117.63629 | 39188 ft | 566 kts | 94° |
| 2026-05-08 06:19 | 31.74584 | 117.72845 | 39185 ft | 566 kts | 94° |
| 2026-05-08 06:20 | 31.73927 | 117.81998 | 39187 ft | 566 kts | 94° |
| 2026-05-08 06:20 | 31.73257 | 117.91214 | 39188 ft | 566 kts | 94° |
| 2026-05-08 06:21 | 31.72584 | 118.00431 | 39199 ft | 566 kts | 94° |
| 2026-05-08 06:21 | 31.71906 | 118.09618 | 39178 ft | 564 kts | 94° |
| 2026-05-08 06:22 | 31.71251 | 118.18805 | 39186 ft | 564 kts | 94° |
| 2026-05-08 06:22 | 31.70622 | 118.27935 | 39187 ft | 565 kts | 94° |
| 2026-05-08 06:23 | 31.69981 | 118.37124 | 39178 ft | 565 kts | 94° |
| 2026-05-08 06:23 | 31.69329 | 118.46308 | 39189 ft | 564 kts | 94° |
| 2026-05-08 06:24 | 31.68668 | 118.55489 | 39186 ft | 564 kts | 94° |
| 2026-05-08 06:24 | 31.68005 | 118.64604 | 39185 ft | 564 kts | 94° |
| 2026-05-08 06:25 | 31.67330 | 118.73785 | 39181 ft | 564 kts | 94° |
| 2026-05-08 06:25 | 31.66650 | 118.82961 | 39184 ft | 564 kts | 94° |
| 2026-05-08 06:26 | 31.65964 | 118.92136 | 39186 ft | 564 kts | 94° |
| 2026-05-08 06:26 | 31.65276 | 119.01250 | 39182 ft | 564 kts | 94° |
| 2026-05-08 06:27 | 31.64650 | 119.10431 | 39188 ft | 564 kts | 92° |
| 2026-05-08 06:27 | 31.64225 | 119.19615 | 39183 ft | 564 kts | 91° |
| 2026-05-08 06:28 | 31.63862 | 119.28805 | 39189 ft | 564 kts | 91° |
| 2026-05-08 06:28 | 31.63474 | 119.37936 | 39091 ft | 564 kts | 92° |
| 2026-05-08 06:29 | 31.63269 | 119.42524 | 38875 ft | 562 kts | 92° |
| 2026-05-08 06:29 | 31.63056 | 119.47083 | 38579 ft | 557 kts | 92° |
| 2026-05-08 06:29 | 31.62838 | 119.51610 | 38136 ft | 555 kts | 92° |
| 2026-05-08 06:29 | 31.62618 | 119.56123 | 37567 ft | 554 kts | 92° |
| 2026-05-08 06:30 | 31.62396 | 119.60635 | 37017 ft | 554 kts | 92° |
| 2026-05-08 06:30 | 31.62175 | 119.65151 | 36461 ft | 554 kts | 92° |
| 2026-05-08 06:30 | 31.61955 | 119.69659 | 35923 ft | 553 kts | 92° |
| 2026-05-08 06:30 | 31.61744 | 119.74151 | 35406 ft | 552 kts | 92° |
| 2026-05-08 06:31 | 31.61540 | 119.78576 | 34911 ft | 550 kts | 92° |
| 2026-05-08 06:31 | 31.61332 | 119.83050 | 34401 ft | 547 kts | 92° |
| 2026-05-08 06:31 | 31.61126 | 119.87492 | 33879 ft | 545 kts | 92° |
| 2026-05-08 06:31 | 31.60918 | 119.91918 | 33241 ft | 543 kts | 92° |
| 2026-05-08 06:32 | 31.60710 | 119.96343 | 32567 ft | 543 kts | 92° |
| 2026-05-08 06:32 | 31.60499 | 120.00771 | 31885 ft | 543 kts | 93° |
| 2026-05-08 06:32 | 31.60287 | 120.05189 | 31252 ft | 542 kts | 93° |
| 2026-05-08 06:32 | 31.60074 | 120.09591 | 30672 ft | 539 kts | 93° |
| 2026-05-08 06:33 | 31.59860 | 120.13978 | 30087 ft | 536 kts | 93° |
| 2026-05-08 06:33 | 31.59649 | 120.18273 | 29450 ft | 533 kts | 93° |
| 2026-05-08 06:33 | 31.59436 | 120.22602 | 28830 ft | 530 kts | 93° |
| 2026-05-08 06:33 | 31.59222 | 120.26896 | 28266 ft | 526 kts | 94° |
| 2026-05-08 06:34 | 31.58940 | 120.31161 | 27642 ft | 522 kts | 99° |
| 2026-05-08 06:34 | 31.58051 | 120.35248 | 27103 ft | 516 kts | 110° |
| 2026-05-08 06:34 | 31.56876 | 120.39203 | 26584 ft | 510 kts | 111° |
| 2026-05-08 06:34 | 31.55688 | 120.43105 | 26084 ft | 506 kts | 111° |
| 2026-05-08 06:35 | 31.54517 | 120.46973 | 25585 ft | 501 kts | 111° |
| 2026-05-08 06:35 | 31.53363 | 120.50804 | 25090 ft | 497 kts | 111° |
| 2026-05-08 06:35 | 31.52235 | 120.54557 | 24597 ft | 493 kts | 111° |
| 2026-05-08 06:35 | 31.51100 | 120.58339 | 24104 ft | 490 kts | 111° |
| 2026-05-08 06:36 | 31.49972 | 120.62098 | 23569 ft | 486 kts | 111° |
| 2026-05-08 06:36 | 31.48855 | 120.65816 | 23048 ft | 482 kts | 111° |
| 2026-05-08 06:36 | 31.47750 | 120.69491 | 22560 ft | 476 kts | 111° |
| 2026-05-08 06:36 | 31.46655 | 120.73133 | 22084 ft | 471 kts | 111° |
| 2026-05-08 06:37 | 31.45572 | 120.76729 | 21607 ft | 466 kts | 111° |
| 2026-05-08 06:37 | 31.44514 | 120.80236 | 21156 ft | 460 kts | 110° |
| 2026-05-08 06:37 | 31.43455 | 120.83743 | 20711 ft | 455 kts | 110° |
| 2026-05-08 06:37 | 31.42404 | 120.87221 | 20256 ft | 450 kts | 110° |
| 2026-05-08 06:38 | 31.41364 | 120.90659 | 19802 ft | 446 kts | 110° |
| 2026-05-08 06:38 | 31.40333 | 120.94062 | 19360 ft | 442 kts | 109° |
| 2026-05-08 06:38 | 31.39310 | 120.97435 | 18907 ft | 438 kts | 109° |
| 2026-05-08 06:38 | 31.38297 | 121.00776 | 18457 ft | 434 kts | 109° |
| 2026-05-08 06:39 | 31.37291 | 121.04085 | 17961 ft | 430 kts | 109° |
| 2026-05-08 06:39 | 31.36296 | 121.07358 | 17510 ft | 424 kts | 109° |
| 2026-05-08 06:39 | 31.35151 | 121.10463 | 17079 ft | 419 kts | 121° |
| 2026-05-08 06:39 | 31.33314 | 121.13057 | 16656 ft | 412 kts | 138° |
| 2026-05-08 06:40 | 31.31173 | 121.15245 | 16224 ft | 407 kts | 141° |
| 2026-05-08 06:40 | 31.29019 | 121.17376 | 15780 ft | 403 kts | 141° |
| 2026-05-08 06:40 | 31.26898 | 121.19489 | 15361 ft | 399 kts | 140° |
| 2026-05-08 06:40 | 31.24799 | 121.21598 | 14937 ft | 396 kts | 140° |
| 2026-05-08 06:41 | 31.22727 | 121.23687 | 14513 ft | 392 kts | 140° |
| 2026-05-08 06:41 | 31.20670 | 121.25764 | 14091 ft | 389 kts | 140° |
| 2026-05-08 06:41 | 31.18628 | 121.27829 | 13635 ft | 386 kts | 140° |
| 2026-05-08 06:41 | 31.16607 | 121.29874 | 13216 ft | 383 kts | 140° |
| 2026-05-08 06:42 | 31.14614 | 121.31912 | 12780 ft | 379 kts | 137° |
| 2026-05-08 06:42 | 31.13023 | 121.34273 | 12355 ft | 375 kts | 116° |
| 2026-05-08 06:42 | 31.12315 | 121.37151 | 11947 ft | 369 kts | 92° |
| 2026-05-08 06:42 | 31.12328 | 121.40121 | 11539 ft | 364 kts | 85° |
| 2026-05-08 06:43 | 31.12448 | 121.43046 | 11248 ft | 357 kts | 85° |
| 2026-05-08 06:43 | 31.12546 | 121.45892 | 11127 ft | 345 kts | 86° |
| 2026-05-08 06:43 | 31.12627 | 121.48640 | 10999 ft | 334 kts | 86° |
| 2026-05-08 06:43 | 31.12695 | 121.51309 | 10862 ft | 325 kts | 86° |
| 2026-05-08 06:44 | 31.12754 | 121.53909 | 10714 ft | 316 kts | 86° |
| 2026-05-08 06:44 | 31.12807 | 121.56440 | 10586 ft | 308 kts | 86° |
| 2026-05-08 06:44 | 31.12858 | 121.58919 | 10405 ft | 303 kts | 86° |
| 2026-05-08 06:44 | 31.12906 | 121.61321 | 10197 ft | 299 kts | 86° |
| 2026-05-08 06:45 | 31.12952 | 121.63721 | 10043 ft | 292 kts | 86° |
| 2026-05-08 06:45 | 31.12997 | 121.66062 | 9916 ft | 285 kts | 86° |
| 2026-05-08 06:45 | 31.13040 | 121.68344 | 9781 ft | 277 kts | 86° |
| 2026-05-08 06:45 | 31.13085 | 121.70560 | 9654 ft | 270 kts | 86° |
| 2026-05-08 06:46 | 31.13123 | 121.72716 | 9548 ft | 262 kts | 86° |
| 2026-05-08 06:46 | 31.13158 | 121.74872 | 9468 ft | 277 kts | 86° |
| 2026-05-08 06:46 | 31.13206 | 121.77169 | 9379 ft | 287 kts | 86° |
| 2026-05-08 06:46 | 31.13259 | 121.79480 | 9265 ft | 289 kts | 86° |
| 2026-05-08 06:47 | 31.13307 | 121.81820 | 9171 ft | 288 kts | 86° |
| 2026-05-08 06:47 | 31.13299 | 121.84163 | 9065 ft | 290 kts | 93° |
| 2026-05-08 06:47 | 31.12699 | 121.86425 | 8696 ft | 299 kts | 118° |
| 2026-05-08 06:47 | 31.11319 | 121.88211 | 8442 ft | 297 kts | 143° |
| 2026-05-08 06:48 | 31.09445 | 121.89191 | 8152 ft | 296 kts | 165° |
| 2026-05-08 06:48 | 31.07471 | 121.89825 | 7857 ft | 293 kts | 160° |
| 2026-05-08 06:48 | 31.05547 | 121.90609 | 7554 ft | 292 kts | 158° |
| 2026-05-08 06:48 | 31.03644 | 121.91409 | 7249 ft | 290 kts | 158° |
| 2026-05-08 06:49 | 31.01776 | 121.92193 | 6936 ft | 288 kts | 158° |
| 2026-05-08 06:49 | 30.99931 | 121.92956 | 6660 ft | 273 kts | 158° |
| 2026-05-08 06:49 | 30.98183 | 121.93666 | 6261 ft | 260 kts | 158° |
| 2026-05-08 06:49 | 30.96500 | 121.94338 | 5770 ft | 252 kts | 158° |
| 2026-05-08 06:50 | 30.94857 | 121.94978 | 5269 ft | 246 kts | 158° |
| 2026-05-08 06:50 | 30.93240 | 121.95584 | 4735 ft | 242 kts | 158° |
| 2026-05-08 06:50 | 30.91599 | 121.95979 | 4099 ft | 245 kts | 177° |
| 2026-05-08 06:50 | 30.89950 | 121.95463 | 3554 ft | 252 kts | 208° |
| 2026-05-08 06:51 | 30.88724 | 121.94054 | 3218 ft | 254 kts | 240° |
| 2026-05-08 06:51 | 30.88236 | 121.92124 | 2988 ft | 247 kts | 271° |
| 2026-05-08 06:51 | 30.88713 | 121.90286 | 2738 ft | 236 kts | 309° |
| 2026-05-08 06:51 | 30.90002 | 121.89230 | 2483 ft | 226 kts | 349° |
| 2026-05-08 06:52 | 30.91534 | 121.89163 | 2272 ft | 219 kts | 4° |
| 2026-05-08 06:52 | 30.93054 | 121.89234 | 2122 ft | 217 kts | 3° |
| 2026-05-08 06:52 | 30.94558 | 121.89199 | 1999 ft | 215 kts | 357° |
| 2026-05-08 06:52 | 30.96046 | 121.88973 | 1971 ft | 217 kts | 351° |
| 2026-05-08 06:53 | 30.97489 | 121.88558 | 1982 ft | 218 kts | 345° |
| 2026-05-08 06:53 | 30.98934 | 121.88031 | 1979 ft | 217 kts | 345° |
| 2026-05-08 06:53 | 31.00376 | 121.87495 | 1991 ft | 217 kts | 344° |
| 2026-05-08 06:53 | 31.01816 | 121.86950 | 1993 ft | 219 kts | 344° |
| 2026-05-08 06:54 | 31.03244 | 121.86425 | 1985 ft | 210 kts | 345° |
| 2026-05-08 06:54 | 31.04621 | 121.85916 | 1765 ft | 206 kts | 344° |
| 2026-05-08 06:54 | 31.05969 | 121.85406 | 1490 ft | 200 kts | 343° |
| 2026-05-08 06:54 | 31.07258 | 121.84921 | 1216 ft | 189 kts | 344° |
| 2026-05-08 06:55 | 31.08441 | 121.84474 | 952 ft | 172 kts | 343° |
| 2026-05-08 06:55 | 31.09525 | 121.84064 | 714 ft | 156 kts | 344° |
| 2026-05-08 06:55 | 31.10525 | 121.83687 | 524 ft | 146 kts | 344° |
| 2026-05-08 06:55 | 31.11476 | 121.83326 | 316 ft | 140 kts | 343° |
| 2026-05-08 06:56 | 31.12396 | 121.82983 | 143 ft | 140 kts | 343° |
| 2026-05-08 06:56 | 31.13315 | 121.82643 | 32 ft | 132 kts | 342° |
| 2026-05-08 06:56 | 31.14021 | 121.82373 | 29 ft | 81 kts | 342° |
| 2026-05-08 06:56 | 31.14424 | 121.82220 | 27 ft | 43 kts | 342° |
| 2026-05-08 06:57 | 31.14654 | 121.82111 | 28 ft | 29 kts | 327° |
| 2026-05-08 06:57 | 31.14784 | 121.81972 | 29 ft | 25 kts | 314° |
| 2026-05-08 06:57 | 31.14906 | 121.81837 | 31 ft | 23 kts | 325° |
| 2026-05-08 06:57 | 31.15033 | 121.81781 | 28 ft | 15 kts | 343° |
| 2026-05-08 06:58 | 31.15123 | 121.81748 | 29 ft | 17 kts | 342° |
| 2026-05-08 06:58 | 31.15253 | 121.81686 | 27 ft | 20 kts | 323° |
| 2026-05-08 06:58 | 31.15363 | 121.81592 | 27 ft | 20 kts | 337° |
| 2026-05-08 06:58 | 31.15490 | 121.81540 | 27 ft | 16 kts | 328° |
| 2026-05-08 06:59 | 31.15502 | 121.81482 | 27 ft | 8 kts | 258° |
| 2026-05-08 06:59 | 31.15471 | 121.81363 | 26 ft | 19 kts | 252° |
| 2026-05-08 06:59 | 31.15429 | 121.81209 | 30 ft | 20 kts | 252° |
| 2026-05-08 06:59 | 31.15385 | 121.81048 | 27 ft | 21 kts | 252° |
| 2026-05-08 07:00 | 31.15344 | 121.80904 | 27 ft | 14 kts | 250° |
| 2026-05-08 07:00 | 31.15298 | 121.80816 | 27 ft | 10 kts | 243° |
| 2026-05-08 07:00 | 31.15286 | 121.80774 | 27 ft | 4 kts | 253° |
| 2026-05-08 07:00 | 31.15280 | 121.80754 | 27 ft | 0 kts | 252° |